<?xml version="1.0" encoding="UTF-8" standalone="no" ?>
<gpx xmlns="http://www.topografix.com/GPX/1/1" xmlns:xsi="http://www.w3.org/2001/XMLSchema-instance" xsi:schemaLocation="http://www.topografix.com/GPX/1/1 http://www.topografix.com/GPX/1/1/gpx.xsd" version="1.1" creator="VisuGPX - https://www.visugpx.com">
  <metadata>
    <name>Saint Nic - Menez Hom 34 km</name>
    <desc><![CDATA[Départ depuis Saint Nic - Ascension du Menez-Hom et retour
A TESTER]]></desc>
  </metadata>
  <trk>
    <name><![CDATA[StNic-MenezHom]]></name>
    <trkseg>
      <trkpt lat="48.20114" lon="-4.28381">
        <ele>59.352016448975</ele>
        <time>2020-05-04T07:24:08.000Z</time>
        <extensions>
          <visugpx:TrkExtension xmlns:visugpx="https://www.visugpx.com/editgpx/">
            <visugpx:node>12</visugpx:node>
            </visugpx:TrkExtension>
        </extensions>
      </trkpt>
      <trkpt lat="48.20114" lon="-4.28381">
        <ele>59.352016448975</ele>
        <time>2020-05-04T07:24:08.000Z</time>
      </trkpt>
      <trkpt lat="48.20058" lon="-4.28389">
        <ele>60.265041351318</ele>
        <time>2020-05-04T07:24:08.011Z</time>
      </trkpt>
      <trkpt lat="48.20054" lon="-4.2839">
        <ele>60.337028503418</ele>
        <time>2020-05-04T07:24:08.023Z</time>
      </trkpt>
      <trkpt lat="48.2003" lon="-4.28393">
        <ele>60.84094619751</ele>
        <time>2020-05-04T07:24:08.040Z</time>
      </trkpt>
      <trkpt lat="48.20006" lon="-4.28395">
        <ele>61.368858337402</ele>
        <time>2020-05-04T07:24:08.062Z</time>
      </trkpt>
      <trkpt lat="48.19973" lon="-4.28385">
        <ele>62.400684356689</ele>
        <time>2020-05-04T07:24:08.090Z</time>
      </trkpt>
      <trkpt lat="48.19857" lon="-4.28342">
        <ele>63.899684906006</ele>
        <time>2020-05-04T07:24:08.142Z</time>
      </trkpt>
      <trkpt lat="48.19798" lon="-4.28302">
        <ele>64.899711608887</ele>
        <time>2020-05-04T07:24:08.207Z</time>
      </trkpt>
      <trkpt lat="48.19779" lon="-4.28275">
        <ele>65.263854980469</ele>
        <time>2020-05-04T07:24:08.278Z</time>
      </trkpt>
      <trkpt lat="48.1977" lon="-4.28256">
        <ele>65.751190185547</ele>
        <time>2020-05-04T07:24:08.352Z</time>
      </trkpt>
      <trkpt lat="48.19763" lon="-4.28238">
        <ele>66.483070373535</ele>
        <time>2020-05-04T07:24:08.428Z</time>
      </trkpt>
      <trkpt lat="48.19747" lon="-4.28207">
        <ele>67.263214111328</ele>
        <time>2020-05-04T07:24:08.510Z</time>
      </trkpt>
      <trkpt lat="48.1973" lon="-4.28171">
        <ele>67.543899536133</ele>
        <time>2020-05-04T07:24:08.598Z</time>
      </trkpt>
      <trkpt lat="48.19717" lon="-4.28157">
        <ele>67.407295227051</ele>
        <time>2020-05-04T07:24:08.689Z</time>
      </trkpt>
      <trkpt lat="48.19702" lon="-4.28146">
        <ele>67.491279602051</ele>
        <time>2020-05-04T07:24:08.783Z</time>
      </trkpt>
      <trkpt lat="48.19652" lon="-4.28118">
        <ele>67.952560424805</ele>
        <time>2020-05-04T07:24:08.888Z</time>
      </trkpt>
      <trkpt lat="48.19599" lon="-4.28092">
        <ele>69.754280090332</ele>
        <time>2020-05-04T07:24:09.004Z</time>
      </trkpt>
      <trkpt lat="48.19526" lon="-4.28052">
        <ele>71.484169006348</ele>
        <time>2020-05-04T07:24:09.136Z</time>
      </trkpt>
      <trkpt lat="48.19519" lon="-4.28048">
        <ele>71.808120727539</ele>
        <time>2020-05-04T07:24:09.269Z</time>
      </trkpt>
      <trkpt lat="48.19535" lon="-4.28019">
        <ele>73.483139038086</ele>
        <time>2020-05-04T07:24:09.407Z</time>
      </trkpt>
      <trkpt lat="48.19553" lon="-4.27987">
        <ele>75.556083679199</ele>
        <time>2020-05-04T07:24:09.551Z</time>
      </trkpt>
      <trkpt lat="48.19609" lon="-4.27823">
        <ele>82.763076782227</ele>
        <time>2020-05-04T07:24:09.719Z</time>
      </trkpt>
      <trkpt lat="48.19612" lon="-4.27808">
        <ele>83.15901184082</ele>
        <time>2020-05-04T07:24:09.889Z</time>
      </trkpt>
      <trkpt lat="48.19618" lon="-4.27779">
        <ele>83.921684265137</ele>
        <time>2020-05-04T07:24:10.063Z</time>
      </trkpt>
      <trkpt lat="48.19622" lon="-4.27674">
        <ele>89.302062988281</ele>
        <time>2020-05-04T07:24:10.252Z</time>
      </trkpt>
      <trkpt lat="48.19626" lon="-4.2755">
        <ele>98.535675048828</ele>
        <time>2020-05-04T07:24:10.457Z</time>
      </trkpt>
      <trkpt lat="48.19625" lon="-4.27478">
        <ele>103.73062896729</ele>
        <time>2020-05-04T07:24:10.672Z</time>
      </trkpt>
      <trkpt lat="48.19625" lon="-4.27474">
        <ele>103.97058868408</ele>
        <time>2020-05-04T07:24:10.887Z</time>
      </trkpt>
      <trkpt lat="48.1962" lon="-4.27414">
        <ele>107.54428863525</ele>
        <time>2020-05-04T07:24:11.110Z</time>
      </trkpt>
      <trkpt lat="48.19612" lon="-4.27371">
        <ele>109.60794067383</ele>
        <time>2020-05-04T07:24:11.339Z</time>
      </trkpt>
      <trkpt lat="48.19611" lon="-4.27338">
        <ele>111.96125793457</ele>
        <time>2020-05-04T07:24:11.573Z</time>
      </trkpt>
      <trkpt lat="48.19609" lon="-4.27315">
        <ele>112.96908569336</ele>
        <time>2020-05-04T07:24:11.810Z</time>
      </trkpt>
      <trkpt lat="48.19612" lon="-4.27303">
        <ele>113.68896484375</ele>
        <time>2020-05-04T07:24:12.049Z</time>
      </trkpt>
      <trkpt lat="48.19606" lon="-4.27294">
        <ele>113.83294677734</ele>
        <time>2020-05-04T07:24:12.289Z</time>
      </trkpt>
      <trkpt lat="48.19619" lon="-4.27217">
        <ele>119.4786605835</ele>
        <time>2020-05-04T07:24:12.540Z</time>
      </trkpt>
      <trkpt lat="48.19629" lon="-4.27169">
        <ele>123.07805633545</ele>
        <time>2020-05-04T07:24:12.798Z</time>
      </trkpt>
      <trkpt lat="48.19633" lon="-4.2715">
        <ele>124.50582122803</ele>
        <time>2020-05-04T07:24:13.058Z</time>
      </trkpt>
      <trkpt lat="48.19637" lon="-4.27088">
        <ele>128.51315307617</ele>
        <time>2020-05-04T07:24:13.327Z</time>
      </trkpt>
      <trkpt lat="48.19645" lon="-4.27053">
        <ele>130.9546661377</ele>
        <time>2020-05-04T07:24:13.601Z</time>
      </trkpt>
      <trkpt lat="48.19659" lon="-4.27011">
        <ele>133.58891296387</ele>
        <time>2020-05-04T07:24:13.881Z</time>
      </trkpt>
      <trkpt lat="48.19669" lon="-4.26992">
        <ele>135.00468444824</ele>
        <time>2020-05-04T07:24:14.164Z</time>
      </trkpt>
      <trkpt lat="48.19671" lon="-4.26987">
        <ele>135.31663513184</ele>
        <time>2020-05-04T07:24:14.448Z</time>
      </trkpt>
      <trkpt lat="48.19679" lon="-4.26962">
        <ele>136.6926574707</ele>
        <time>2020-05-04T07:24:14.736Z</time>
      </trkpt>
      <trkpt lat="48.19693" lon="-4.2693">
        <ele>138.81292724609</ele>
        <time>2020-05-04T07:24:15.029Z</time>
      </trkpt>
      <trkpt lat="48.19718" lon="-4.26885">
        <ele>142.53230285645</ele>
        <time>2020-05-04T07:24:15.330Z</time>
      </trkpt>
      <trkpt lat="48.19725" lon="-4.26871">
        <ele>143.62413024902</ele>
        <time>2020-05-04T07:24:15.633Z</time>
      </trkpt>
      <trkpt lat="48.19792" lon="-4.26788">
        <ele>148.28736877441</ele>
        <time>2020-05-04T07:24:15.953Z</time>
      </trkpt>
      <trkpt lat="48.19804" lon="-4.26771">
        <ele>148.84648132324</ele>
        <time>2020-05-04T07:24:16.277Z</time>
      </trkpt>
      <trkpt lat="48.19816" lon="-4.26752">
        <ele>149.25440979004</ele>
        <time>2020-05-04T07:24:16.604Z</time>
      </trkpt>
      <trkpt lat="48.19853" lon="-4.26692">
        <ele>150.62274169922</ele>
        <time>2020-05-04T07:24:16.942Z</time>
      </trkpt>
      <trkpt lat="48.19886" lon="-4.26642">
        <ele>152.95106506348</ele>
        <time>2020-05-04T07:24:17.289Z</time>
      </trkpt>
      <trkpt lat="48.19944" lon="-4.26554">
        <ele>156.93864440918</ele>
        <time>2020-05-04T07:24:17.653Z</time>
      </trkpt>
      <trkpt lat="48.19961" lon="-4.26526">
        <ele>157.99876403809</ele>
        <time>2020-05-04T07:24:18.022Z</time>
      </trkpt>
      <trkpt lat="48.19971" lon="-4.26511">
        <ele>158.77864074707</ele>
        <time>2020-05-04T07:24:18.394Z</time>
      </trkpt>
      <trkpt lat="48.19972" lon="-4.2651">
        <ele>158.85063171387</ele>
        <time>2020-05-04T07:24:18.766Z</time>
      </trkpt>
      <trkpt lat="48.20022" lon="-4.26462">
        <ele>162.05531311035</ele>
        <time>2020-05-04T07:24:19.150Z</time>
      </trkpt>
      <trkpt lat="48.20034" lon="-4.26447">
        <ele>162.52323913574</ele>
        <time>2020-05-04T07:24:19.537Z</time>
      </trkpt>
      <trkpt lat="48.20037" lon="-4.26445">
        <ele>162.61921691895</ele>
        <time>2020-05-04T07:24:19.925Z</time>
      </trkpt>
      <trkpt lat="48.20049" lon="-4.2641">
        <ele>163.32710266113</ele>
        <time>2020-05-04T07:24:20.318Z</time>
      </trkpt>
      <trkpt lat="48.20062" lon="-4.26349">
        <ele>164.13836669922</ele>
        <time>2020-05-04T07:24:20.720Z</time>
      </trkpt>
      <trkpt lat="48.20066" lon="-4.26341">
        <ele>164.47430419922</ele>
        <time>2020-05-04T07:24:21.123Z</time>
      </trkpt>
      <trkpt lat="48.20113" lon="-4.26245">
        <ele>167.43078613281</ele>
        <time>2020-05-04T07:24:21.542Z</time>
      </trkpt>
      <trkpt lat="48.20117" lon="-4.26227">
        <ele>167.52676391602</ele>
        <time>2020-05-04T07:24:21.963Z</time>
      </trkpt>
      <trkpt lat="48.20117" lon="-4.26209">
        <ele>167.52676391602</ele>
        <time>2020-05-04T07:24:22.387Z</time>
      </trkpt>
      <trkpt lat="48.20117" lon="-4.26208">
        <ele>167.52676391602</ele>
        <time>2020-05-04T07:24:22.811Z</time>
      </trkpt>
      <trkpt lat="48.20115" lon="-4.26176">
        <ele>167.71836853027</ele>
        <time>2020-05-04T07:24:23.239Z</time>
      </trkpt>
      <trkpt lat="48.20114" lon="-4.26172">
        <ele>167.74237060547</ele>
        <time>2020-05-04T07:24:23.668Z</time>
      </trkpt>
      <trkpt lat="48.20104" lon="-4.26168">
        <ele>167.55039978027</ele>
        <time>2020-05-04T07:24:24.099Z</time>
      </trkpt>
      <trkpt lat="48.20104" lon="-4.26163">
        <ele>167.61038208008</ele>
        <time>2020-05-04T07:24:24.531Z</time>
      </trkpt>
      <trkpt lat="48.20111" lon="-4.26105">
        <ele>168.5657043457</ele>
        <time>2020-05-04T07:24:24.971Z</time>
      </trkpt>
      <trkpt lat="48.20117" lon="-4.26069">
        <ele>169.31353759766</ele>
        <time>2020-05-04T07:24:25.415Z</time>
      </trkpt>
      <trkpt lat="48.20108" lon="-4.26076">
        <ele>168.90559387207</ele>
        <time>2020-05-04T07:24:25.862Z</time>
      </trkpt>
      <trkpt lat="48.20044" lon="-4.26124">
        <ele>165.41360473633</ele>
        <time>2020-05-04T07:24:26.323Z</time>
      </trkpt>
      <trkpt lat="48.20025" lon="-4.2614">
        <ele>164.30978393555</ele>
        <time>2020-05-04T07:24:26.788Z</time>
      </trkpt>
      <trkpt lat="48.19935" lon="-4.26216">
        <ele>159.31898498535</ele>
        <time>2020-05-04T07:24:27.274Z</time>
      </trkpt>
      <trkpt lat="48.19918" lon="-4.26232">
        <ele>158.25468444824</ele>
        <time>2020-05-04T07:24:27.764Z</time>
      </trkpt>
      <trkpt lat="48.19901" lon="-4.26249">
        <ele>157.03088378906</ele>
        <time>2020-05-04T07:24:28.258Z</time>
      </trkpt>
      <trkpt lat="48.19875" lon="-4.26284">
        <ele>155.10301208496</ele>
        <time>2020-05-04T07:24:28.759Z</time>
      </trkpt>
      <trkpt lat="48.19861" lon="-4.2632">
        <ele>153.66325378418</ele>
        <time>2020-05-04T07:24:29.266Z</time>
      </trkpt>
      <trkpt lat="48.1984" lon="-4.2637">
        <ele>151.40351867676</ele>
        <time>2020-05-04T07:24:29.780Z</time>
      </trkpt>
      <trkpt lat="48.19799" lon="-4.26353">
        <ele>148.25207519531</ele>
        <time>2020-05-04T07:24:30.303Z</time>
      </trkpt>
      <trkpt lat="48.19798" lon="-4.26353">
        <ele>148.16809082031</ele>
        <time>2020-05-04T07:24:30.826Z</time>
      </trkpt>
      <trkpt lat="48.19734" lon="-4.26326">
        <ele>145.65599060059</ele>
        <time>2020-05-04T07:24:31.363Z</time>
      </trkpt>
      <trkpt lat="48.19732" lon="-4.26324">
        <ele>145.67997741699</ele>
        <time>2020-05-04T07:24:31.900Z</time>
      </trkpt>
      <trkpt lat="48.19717" lon="-4.26312">
        <ele>146.0393371582</ele>
        <time>2020-05-04T07:24:32.440Z</time>
      </trkpt>
      <trkpt lat="48.19703" lon="-4.26283">
        <ele>147.77905273438</ele>
        <time>2020-05-04T07:24:32.985Z</time>
      </trkpt>
      <trkpt lat="48.19699" lon="-4.26215">
        <ele>150.3150177002</ele>
        <time>2020-05-04T07:24:33.539Z</time>
      </trkpt>
      <trkpt lat="48.19692" lon="-4.26084">
        <ele>156.86599731445</ele>
        <time>2020-05-04T07:24:34.111Z</time>
      </trkpt>
      <trkpt lat="48.19691" lon="-4.26065">
        <ele>157.56188964844</ele>
        <time>2020-05-04T07:24:34.685Z</time>
      </trkpt>
      <trkpt lat="48.19694" lon="-4.26031">
        <ele>158.74969482422</ele>
        <time>2020-05-04T07:24:35.264Z</time>
      </trkpt>
      <trkpt lat="48.197" lon="-4.26003">
        <ele>159.5754699707</ele>
        <time>2020-05-04T07:24:35.847Z</time>
      </trkpt>
      <trkpt lat="48.19722" lon="-4.25949">
        <ele>160.48731994629</ele>
        <time>2020-05-04T07:24:36.438Z</time>
      </trkpt>
      <trkpt lat="48.19749" lon="-4.25895">
        <ele>162.07019042969</ele>
        <time>2020-05-04T07:24:37.038Z</time>
      </trkpt>
      <trkpt lat="48.1973" lon="-4.25876">
        <ele>161.64163208008</ele>
        <time>2020-05-04T07:24:37.643Z</time>
      </trkpt>
      <trkpt lat="48.19718" lon="-4.25863">
        <ele>160.90975952148</ele>
        <time>2020-05-04T07:24:38.251Z</time>
      </trkpt>
      <trkpt lat="48.19685" lon="-4.25833">
        <ele>159.32098388672</ele>
        <time>2020-05-04T07:24:38.867Z</time>
      </trkpt>
      <trkpt lat="48.19672" lon="-4.25814">
        <ele>159.15145874023</ele>
        <time>2020-05-04T07:24:39.486Z</time>
      </trkpt>
      <trkpt lat="48.19659" lon="-4.25791">
        <ele>159.1918182373</ele>
        <time>2020-05-04T07:24:40.109Z</time>
      </trkpt>
      <trkpt lat="48.19657" lon="-4.25786">
        <ele>158.98785400391</ele>
        <time>2020-05-04T07:24:40.733Z</time>
      </trkpt>
      <trkpt lat="48.19639" lon="-4.25741">
        <ele>158.0696105957</ele>
        <time>2020-05-04T07:24:41.364Z</time>
      </trkpt>
      <trkpt lat="48.19616" lon="-4.25696">
        <ele>156.50749206543</ele>
        <time>2020-05-04T07:24:42.003Z</time>
      </trkpt>
      <trkpt lat="48.19584" lon="-4.25649">
        <ele>152.66108703613</ele>
        <time>2020-05-04T07:24:42.651Z</time>
      </trkpt>
      <trkpt lat="48.19569" lon="-4.25637">
        <ele>151.14916992188</ele>
        <time>2020-05-04T07:24:43.302Z</time>
      </trkpt>
      <trkpt lat="48.19555" lon="-4.25626">
        <ele>148.61758422852</ele>
        <time>2020-05-04T07:24:43.956Z</time>
      </trkpt>
      <trkpt lat="48.19504" lon="-4.25611">
        <ele>142.19500732422</ele>
        <time>2020-05-04T07:24:44.621Z</time>
      </trkpt>
      <trkpt lat="48.19451" lon="-4.25563">
        <ele>133.83926391602</ele>
        <time>2020-05-04T07:24:45.298Z</time>
      </trkpt>
      <trkpt lat="48.19412" lon="-4.25527">
        <ele>125.78900146484</ele>
        <time>2020-05-04T07:24:45.984Z</time>
      </trkpt>
      <trkpt lat="48.19403" lon="-4.25523">
        <ele>124.73317718506</ele>
        <time>2020-05-04T07:24:46.672Z</time>
      </trkpt>
      <trkpt lat="48.19396" lon="-4.25523">
        <ele>123.72534179688</ele>
        <time>2020-05-04T07:24:47.362Z</time>
      </trkpt>
      <trkpt lat="48.19391" lon="-4.25526">
        <ele>122.82549285889</ele>
        <time>2020-05-04T07:24:48.053Z</time>
      </trkpt>
      <trkpt lat="48.19374" lon="-4.25534">
        <ele>120.41717529297</ele>
        <time>2020-05-04T07:24:48.747Z</time>
      </trkpt>
      <trkpt lat="48.19368" lon="-4.25535">
        <ele>119.60131072998</ele>
        <time>2020-05-04T07:24:49.442Z</time>
      </trkpt>
      <trkpt lat="48.19351" lon="-4.25532">
        <ele>117.00974273682</ele>
        <time>2020-05-04T07:24:50.141Z</time>
      </trkpt>
      <trkpt lat="48.19318" lon="-4.2552">
        <ele>113.74669647217</ele>
        <time>2020-05-04T07:24:50.847Z</time>
      </trkpt>
      <trkpt lat="48.19305" lon="-4.25516">
        <ele>112.64288330078</ele>
        <time>2020-05-04T07:24:51.555Z</time>
      </trkpt>
      <trkpt lat="48.19281" lon="-4.25507">
        <ele>110.66320800781</ele>
        <time>2020-05-04T07:24:52.268Z</time>
      </trkpt>
      <trkpt lat="48.19256" lon="-4.25504">
        <ele>108.10401153564</ele>
        <time>2020-05-04T07:24:52.986Z</time>
      </trkpt>
      <trkpt lat="48.19224" lon="-4.25511">
        <ele>103.24481964111</ele>
        <time>2020-05-04T07:24:53.711Z</time>
      </trkpt>
      <trkpt lat="48.19217" lon="-4.25508">
        <ele>102.34497070312</ele>
        <time>2020-05-04T07:24:54.437Z</time>
      </trkpt>
      <trkpt lat="48.19211" lon="-4.25503">
        <ele>101.66107940674</ele>
        <time>2020-05-04T07:24:55.165Z</time>
      </trkpt>
      <trkpt lat="48.19208" lon="-4.255">
        <ele>101.33713531494</ele>
        <time>2020-05-04T07:24:55.893Z</time>
      </trkpt>
      <trkpt lat="48.19204" lon="-4.25489">
        <ele>101.67620849609</ele>
        <time>2020-05-04T07:24:56.623Z</time>
      </trkpt>
      <trkpt lat="48.19196" lon="-4.25478">
        <ele>101.6042175293</ele>
        <time>2020-05-04T07:24:57.355Z</time>
      </trkpt>
      <trkpt lat="48.19128" lon="-4.25361">
        <ele>98.634910583496</ele>
        <time>2020-05-04T07:24:58.108Z</time>
      </trkpt>
      <trkpt lat="48.19086" lon="-4.25294">
        <ele>96.150161743164</ele>
        <time>2020-05-04T07:24:58.873Z</time>
      </trkpt>
      <trkpt lat="48.19076" lon="-4.25276">
        <ele>94.86629486084</ele>
        <time>2020-05-04T07:24:59.641Z</time>
      </trkpt>
      <trkpt lat="48.19068" lon="-4.25265">
        <ele>93.654495239258</ele>
        <time>2020-05-04T07:25:00.411Z</time>
      </trkpt>
      <trkpt lat="48.1906" lon="-4.25259">
        <ele>92.382713317871</ele>
        <time>2020-05-04T07:25:01.183Z</time>
      </trkpt>
      <trkpt lat="48.19035" lon="-4.25251">
        <ele>88.1669921875</ele>
        <time>2020-05-04T07:25:01.960Z</time>
      </trkpt>
      <trkpt lat="48.18996" lon="-4.25242">
        <ele>81.69051361084</ele>
        <time>2020-05-04T07:25:02.745Z</time>
      </trkpt>
      <trkpt lat="48.18909" lon="-4.25222">
        <ele>71.242492675781</ele>
        <time>2020-05-04T07:25:03.548Z</time>
      </trkpt>
      <trkpt lat="48.18891" lon="-4.25219">
        <ele>69.262825012207</ele>
        <time>2020-05-04T07:25:04.355Z</time>
      </trkpt>
      <trkpt lat="48.18877" lon="-4.25218">
        <ele>67.739082336426</ele>
        <time>2020-05-04T07:25:05.164Z</time>
      </trkpt>
      <trkpt lat="48.18829" lon="-4.25223">
        <ele>63.566143035889</ele>
        <time>2020-05-04T07:25:05.983Z</time>
      </trkpt>
      <trkpt lat="48.18761" lon="-4.25231">
        <ele>60.392765045166</ele>
        <time>2020-05-04T07:25:06.816Z</time>
      </trkpt>
      <trkpt lat="48.18765" lon="-4.25218">
        <ele>60.434665679932</ele>
        <time>2020-05-04T07:25:07.651Z</time>
      </trkpt>
      <trkpt lat="48.18766" lon="-4.25216">
        <ele>60.458660125732</ele>
        <time>2020-05-04T07:25:08.486Z</time>
      </trkpt>
      <trkpt lat="48.18822" lon="-4.24994">
        <ele>62.787395477295</ele>
        <time>2020-05-04T07:25:09.353Z</time>
      </trkpt>
      <trkpt lat="48.18857" lon="-4.24874">
        <ele>64.882308959961</ele>
        <time>2020-05-04T07:25:10.237Z</time>
      </trkpt>
      <trkpt lat="48.18858" lon="-4.24869">
        <ele>65.02628326416</ele>
        <time>2020-05-04T07:25:11.122Z</time>
      </trkpt>
      <trkpt lat="48.18879" lon="-4.24864">
        <ele>66.849983215332</ele>
        <time>2020-05-04T07:25:12.011Z</time>
      </trkpt>
      <trkpt lat="48.18882" lon="-4.24859">
        <ele>67.039039611816</ele>
        <time>2020-05-04T07:25:12.901Z</time>
      </trkpt>
      <trkpt lat="48.18884" lon="-4.24854">
        <ele>67.087036132812</ele>
        <time>2020-05-04T07:25:13.792Z</time>
      </trkpt>
      <trkpt lat="48.18891" lon="-4.24813">
        <ele>66.769172668457</ele>
        <time>2020-05-04T07:25:14.688Z</time>
      </trkpt>
      <trkpt lat="48.18899" lon="-4.24754">
        <ele>67.249092102051</ele>
        <time>2020-05-04T07:25:15.593Z</time>
      </trkpt>
      <trkpt lat="48.18905" lon="-4.24692">
        <ele>67.97647857666</ele>
        <time>2020-05-04T07:25:16.506Z</time>
      </trkpt>
      <trkpt lat="48.18906" lon="-4.24665">
        <ele>68.67236328125</ele>
        <time>2020-05-04T07:25:17.423Z</time>
      </trkpt>
      <trkpt lat="48.18909" lon="-4.24606">
        <ele>70.07836151123</ele>
        <time>2020-05-04T07:25:18.347Z</time>
      </trkpt>
      <trkpt lat="48.18911" lon="-4.24585">
        <ele>70.954216003418</ele>
        <time>2020-05-04T07:25:19.274Z</time>
      </trkpt>
      <trkpt lat="48.18925" lon="-4.2456">
        <ele>72.693923950195</ele>
        <time>2020-05-04T07:25:20.206Z</time>
      </trkpt>
      <trkpt lat="48.18946" lon="-4.24532">
        <ele>74.53409576416</ele>
        <time>2020-05-04T07:25:21.143Z</time>
      </trkpt>
      <trkpt lat="48.18953" lon="-4.24515">
        <ele>75.061408996582</ele>
        <time>2020-05-04T07:25:22.083Z</time>
      </trkpt>
      <trkpt lat="48.18954" lon="-4.24513">
        <ele>75.121398925781</ele>
        <time>2020-05-04T07:25:23.023Z</time>
      </trkpt>
      <trkpt lat="48.18964" lon="-4.24483">
        <ele>76.086318969727</ele>
        <time>2020-05-04T07:25:23.968Z</time>
      </trkpt>
      <trkpt lat="48.18973" lon="-4.2444">
        <ele>77.742042541504</ele>
        <time>2020-05-04T07:25:24.919Z</time>
      </trkpt>
      <trkpt lat="48.1898" lon="-4.24433">
        <ele>78.077987670898</ele>
        <time>2020-05-04T07:25:25.871Z</time>
      </trkpt>
      <trkpt lat="48.19073" lon="-4.24435">
        <ele>82.681053161621</ele>
        <time>2020-05-04T07:25:26.842Z</time>
      </trkpt>
      <trkpt lat="48.19094" lon="-4.24436">
        <ele>84.168800354004</ele>
        <time>2020-05-04T07:25:27.817Z</time>
      </trkpt>
      <trkpt lat="48.19096" lon="-4.24431">
        <ele>84.459609985352</ele>
        <time>2020-05-04T07:25:28.793Z</time>
      </trkpt>
      <trkpt lat="48.19089" lon="-4.24342">
        <ele>86.866836547852</ele>
        <time>2020-05-04T07:25:29.781Z</time>
      </trkpt>
      <trkpt lat="48.19087" lon="-4.24313">
        <ele>88.48656463623</ele>
        <time>2020-05-04T07:25:30.773Z</time>
      </trkpt>
      <trkpt lat="48.19083" lon="-4.24261">
        <ele>91.007766723633</ele>
        <time>2020-05-04T07:25:31.772Z</time>
      </trkpt>
      <trkpt lat="48.19085" lon="-4.24243">
        <ele>92.015602111816</ele>
        <time>2020-05-04T07:25:32.773Z</time>
      </trkpt>
      <trkpt lat="48.1911" lon="-4.24109">
        <ele>101.25568389893</ele>
        <time>2020-05-04T07:25:33.793Z</time>
      </trkpt>
      <trkpt lat="48.19113" lon="-4.24093">
        <ele>102.05750274658</ele>
        <time>2020-05-04T07:25:34.815Z</time>
      </trkpt>
      <trkpt lat="48.19113" lon="-4.24077">
        <ele>102.24947357178</ele>
        <time>2020-05-04T07:25:35.839Z</time>
      </trkpt>
      <trkpt lat="48.19174" lon="-4.23992">
        <ele>112.34048461914</ele>
        <time>2020-05-04T07:25:36.880Z</time>
      </trkpt>
      <trkpt lat="48.19191" lon="-4.23972">
        <ele>115.75821685791</ele>
        <time>2020-05-04T07:25:37.925Z</time>
      </trkpt>
      <trkpt lat="48.19199" lon="-4.23956">
        <ele>117.48593139648</ele>
        <time>2020-05-04T07:25:38.973Z</time>
      </trkpt>
      <trkpt lat="48.19205" lon="-4.23941">
        <ele>118.83683776855</ele>
        <time>2020-05-04T07:25:40.023Z</time>
      </trkpt>
      <trkpt lat="48.19228" lon="-4.23872">
        <ele>124.91770172119</ele>
        <time>2020-05-04T07:25:41.084Z</time>
      </trkpt>
      <trkpt lat="48.1924" lon="-4.2383">
        <ele>127.21240997314</ele>
        <time>2020-05-04T07:25:42.151Z</time>
      </trkpt>
      <trkpt lat="48.19246" lon="-4.23812">
        <ele>128.22024536133</ele>
        <time>2020-05-04T07:25:43.221Z</time>
      </trkpt>
      <trkpt lat="48.19247" lon="-4.23809">
        <ele>128.38821411133</ele>
        <time>2020-05-04T07:25:44.291Z</time>
      </trkpt>
      <trkpt lat="48.19266" lon="-4.23756">
        <ele>131.19366455078</ele>
        <time>2020-05-04T07:25:45.369Z</time>
      </trkpt>
      <trkpt lat="48.19271" lon="-4.23749">
        <ele>131.86555480957</ele>
        <time>2020-05-04T07:25:46.448Z</time>
      </trkpt>
      <trkpt lat="48.19305" lon="-4.23699">
        <ele>136.37680053711</ele>
        <time>2020-05-04T07:25:47.537Z</time>
      </trkpt>
      <trkpt lat="48.1932" lon="-4.23682">
        <ele>137.83801269531</ele>
        <time>2020-05-04T07:25:48.630Z</time>
      </trkpt>
      <trkpt lat="48.19445" lon="-4.23603">
        <ele>154.03338623047</ele>
        <time>2020-05-04T07:25:49.750Z</time>
      </trkpt>
      <trkpt lat="48.19466" lon="-4.23589">
        <ele>155.12519836426</ele>
        <time>2020-05-04T07:25:50.874Z</time>
      </trkpt>
      <trkpt lat="48.19543" lon="-4.23549">
        <ele>160.83343505859</ele>
        <time>2020-05-04T07:25:52.015Z</time>
      </trkpt>
      <trkpt lat="48.19588" lon="-4.23509">
        <ele>164.60432434082</ele>
        <time>2020-05-04T07:25:53.166Z</time>
      </trkpt>
      <trkpt lat="48.19594" lon="-4.23503">
        <ele>165.25221252441</ele>
        <time>2020-05-04T07:25:54.319Z</time>
      </trkpt>
      <trkpt lat="48.19694" lon="-4.23407">
        <ele>170.5719909668</ele>
        <time>2020-05-04T07:25:55.496Z</time>
      </trkpt>
      <trkpt lat="48.19735" lon="-4.23358">
        <ele>172.60162353516</ele>
        <time>2020-05-04T07:25:56.683Z</time>
      </trkpt>
      <trkpt lat="48.19829" lon="-4.23247">
        <ele>179.31610107422</ele>
        <time>2020-05-04T07:25:57.894Z</time>
      </trkpt>
      <trkpt lat="48.19849" lon="-4.23226">
        <ele>180.97219848633</ele>
        <time>2020-05-04T07:25:59.110Z</time>
      </trkpt>
      <trkpt lat="48.19915" lon="-4.23158">
        <ele>183.74937438965</ele>
        <time>2020-05-04T07:26:00.342Z</time>
      </trkpt>
      <trkpt lat="48.19918" lon="-4.23156">
        <ele>183.90534973145</ele>
        <time>2020-05-04T07:26:01.575Z</time>
      </trkpt>
      <trkpt lat="48.19929" lon="-4.2315">
        <ele>184.49324035645</ele>
        <time>2020-05-04T07:26:02.810Z</time>
      </trkpt>
      <trkpt lat="48.19894" lon="-4.23115">
        <ele>182.35131835938</ele>
        <time>2020-05-04T07:26:04.053Z</time>
      </trkpt>
      <trkpt lat="48.19893" lon="-4.23114">
        <ele>182.30332946777</ele>
        <time>2020-05-04T07:26:05.297Z</time>
      </trkpt>
      <trkpt lat="48.19957" lon="-4.22997">
        <ele>187.09332275391</ele>
        <time>2020-05-04T07:26:06.561Z</time>
      </trkpt>
      <trkpt lat="48.19989" lon="-4.22939">
        <ele>190.62586975098</ele>
        <time>2020-05-04T07:26:07.835Z</time>
      </trkpt>
      <trkpt lat="48.19992" lon="-4.22935">
        <ele>190.99780273438</ele>
        <time>2020-05-04T07:26:09.110Z</time>
      </trkpt>
      <trkpt lat="48.19993" lon="-4.22935">
        <ele>191.10578918457</ele>
        <time>2020-05-04T07:26:10.385Z</time>
      </trkpt>
      <trkpt lat="48.19996" lon="-4.22933">
        <ele>191.45373535156</ele>
        <time>2020-05-04T07:26:11.661Z</time>
      </trkpt>
      <trkpt lat="48.20002" lon="-4.22932">
        <ele>192.11361694336</ele>
        <time>2020-05-04T07:26:12.938Z</time>
      </trkpt>
      <trkpt lat="48.2001" lon="-4.22932">
        <ele>192.97747802734</ele>
        <time>2020-05-04T07:26:14.216Z</time>
      </trkpt>
      <trkpt lat="48.20016" lon="-4.22931">
        <ele>193.43103027344</ele>
        <time>2020-05-04T07:26:15.496Z</time>
      </trkpt>
      <trkpt lat="48.20031" lon="-4.22971">
        <ele>193.61940002441</ele>
        <time>2020-05-04T07:26:16.782Z</time>
      </trkpt>
      <trkpt lat="48.20034" lon="-4.22978">
        <ele>193.67939758301</ele>
        <time>2020-05-04T07:26:18.069Z</time>
      </trkpt>
      <trkpt lat="48.20042" lon="-4.2297">
        <ele>194.1593170166</ele>
        <time>2020-05-04T07:26:19.358Z</time>
      </trkpt>
      <trkpt lat="48.2004" lon="-4.22964">
        <ele>194.13531494141</ele>
        <time>2020-05-04T07:26:20.648Z</time>
      </trkpt>
      <trkpt lat="48.20043" lon="-4.22947">
        <ele>194.4832611084</ele>
        <time>2020-05-04T07:26:21.940Z</time>
      </trkpt>
      <trkpt lat="48.20053" lon="-4.22926">
        <ele>195.4482421875</ele>
        <time>2020-05-04T07:26:23.235Z</time>
      </trkpt>
      <trkpt lat="48.20086" lon="-4.22878">
        <ele>198.18377685547</ele>
        <time>2020-05-04T07:26:24.540Z</time>
      </trkpt>
      <trkpt lat="48.20104" lon="-4.22844">
        <ele>200.18995666504</ele>
        <time>2020-05-04T07:26:25.850Z</time>
      </trkpt>
      <trkpt lat="48.20113" lon="-4.22821">
        <ele>201.61772155762</ele>
        <time>2020-05-04T07:26:27.164Z</time>
      </trkpt>
      <trkpt lat="48.20114" lon="-4.22818">
        <ele>201.79768371582</ele>
        <time>2020-05-04T07:26:28.478Z</time>
      </trkpt>
      <trkpt lat="48.20108" lon="-4.22806">
        <ele>202.15762329102</ele>
        <time>2020-05-04T07:26:29.794Z</time>
      </trkpt>
      <trkpt lat="48.20104" lon="-4.22799">
        <ele>202.34959411621</ele>
        <time>2020-05-04T07:26:31.112Z</time>
      </trkpt>
      <trkpt lat="48.20074" lon="-4.22689">
        <ele>205.69201660156</ele>
        <time>2020-05-04T07:26:32.446Z</time>
      </trkpt>
      <trkpt lat="48.20025" lon="-4.22536">
        <ele>208.81132507324</ele>
        <time>2020-05-04T07:26:33.802Z</time>
      </trkpt>
      <trkpt lat="48.20022" lon="-4.22527">
        <ele>208.7282409668</ele>
        <time>2020-05-04T07:26:35.160Z</time>
      </trkpt>
      <trkpt lat="48.20018" lon="-4.22518">
        <ele>208.59413146973</ele>
        <time>2020-05-04T07:26:36.519Z</time>
      </trkpt>
      <trkpt lat="48.2001" lon="-4.22501">
        <ele>207.75190734863</ele>
        <time>2020-05-04T07:26:37.881Z</time>
      </trkpt>
      <trkpt lat="48.19997" lon="-4.22459">
        <ele>207.39196777344</ele>
        <time>2020-05-04T07:26:39.249Z</time>
      </trkpt>
      <trkpt lat="48.19996" lon="-4.22454">
        <ele>207.42794799805</ele>
        <time>2020-05-04T07:26:40.618Z</time>
      </trkpt>
      <trkpt lat="48.19994" lon="-4.22439">
        <ele>207.6037902832</ele>
        <time>2020-05-04T07:26:41.989Z</time>
      </trkpt>
      <trkpt lat="48.19994" lon="-4.22421">
        <ele>208.0357208252</ele>
        <time>2020-05-04T07:26:43.362Z</time>
      </trkpt>
      <trkpt lat="48.19997" lon="-4.22404">
        <ele>208.87557983398</ele>
        <time>2020-05-04T07:26:44.738Z</time>
      </trkpt>
      <trkpt lat="48.19993" lon="-4.22408">
        <ele>208.2036895752</ele>
        <time>2020-05-04T07:26:46.115Z</time>
      </trkpt>
      <trkpt lat="48.19997" lon="-4.22404">
        <ele>208.87557983398</ele>
        <time>2020-05-04T07:26:47.492Z</time>
      </trkpt>
      <trkpt lat="48.20001" lon="-4.22391">
        <ele>209.76342773438</ele>
        <time>2020-05-04T07:26:48.871Z</time>
      </trkpt>
      <trkpt lat="48.20007" lon="-4.22384">
        <ele>210.79525756836</ele>
        <time>2020-05-04T07:26:50.252Z</time>
      </trkpt>
      <trkpt lat="48.20028" lon="-4.22375">
        <ele>215.5991973877</ele>
        <time>2020-05-04T07:26:51.637Z</time>
      </trkpt>
      <trkpt lat="48.20034" lon="-4.22376">
        <ele>217.01496887207</ele>
        <time>2020-05-04T07:26:53.024Z</time>
      </trkpt>
      <trkpt lat="48.20039" lon="-4.22381">
        <ele>218.09478759766</ele>
        <time>2020-05-04T07:26:54.412Z</time>
      </trkpt>
      <trkpt lat="48.20042" lon="-4.22384">
        <ele>218.74267578125</ele>
        <time>2020-05-04T07:26:55.800Z</time>
      </trkpt>
      <trkpt lat="48.20046" lon="-4.22392">
        <ele>219.51054382324</ele>
        <time>2020-05-04T07:26:57.190Z</time>
      </trkpt>
      <trkpt lat="48.20053" lon="-4.22433">
        <ele>218.81683349609</ele>
        <time>2020-05-04T07:26:58.585Z</time>
      </trkpt>
      <trkpt lat="48.20057" lon="-4.22442">
        <ele>218.93681335449</ele>
        <time>2020-05-04T07:26:59.982Z</time>
      </trkpt>
      <trkpt lat="48.20066" lon="-4.22453">
        <ele>220.14820861816</ele>
        <time>2020-05-04T07:27:01.381Z</time>
      </trkpt>
      <trkpt lat="48.2007" lon="-4.22465">
        <ele>220.48414611816</ele>
        <time>2020-05-04T07:27:02.782Z</time>
      </trkpt>
      <trkpt lat="48.20078" lon="-4.22477">
        <ele>221.06217956543</ele>
        <time>2020-05-04T07:27:04.185Z</time>
      </trkpt>
      <trkpt lat="48.20081" lon="-4.22484">
        <ele>221.02618408203</ele>
        <time>2020-05-04T07:27:05.589Z</time>
      </trkpt>
      <trkpt lat="48.20083" lon="-4.22489">
        <ele>220.97819519043</ele>
        <time>2020-05-04T07:27:06.994Z</time>
      </trkpt>
      <trkpt lat="48.20091" lon="-4.22505">
        <ele>221.07418823242</ele>
        <time>2020-05-04T07:27:08.402Z</time>
      </trkpt>
      <trkpt lat="48.20097" lon="-4.22515">
        <ele>221.26672363281</ele>
        <time>2020-05-04T07:27:09.812Z</time>
      </trkpt>
      <trkpt lat="48.20101" lon="-4.22519">
        <ele>221.55467224121</ele>
        <time>2020-05-04T07:27:11.223Z</time>
      </trkpt>
      <trkpt lat="48.20105" lon="-4.22519">
        <ele>222.13369750977</ele>
        <time>2020-05-04T07:27:12.634Z</time>
      </trkpt>
      <trkpt lat="48.20109" lon="-4.22517">
        <ele>222.87757873535</ele>
        <time>2020-05-04T07:27:14.046Z</time>
      </trkpt>
      <trkpt lat="48.20111" lon="-4.22526">
        <ele>222.64961242676</ele>
        <time>2020-05-04T07:27:15.460Z</time>
      </trkpt>
      <trkpt lat="48.20111" lon="-4.22533">
        <ele>222.12631225586</ele>
        <time>2020-05-04T07:27:16.874Z</time>
      </trkpt>
      <trkpt lat="48.20121" lon="-4.22548">
        <ele>222.42625427246</ele>
        <time>2020-05-04T07:27:18.291Z</time>
      </trkpt>
      <trkpt lat="48.20131" lon="-4.22559">
        <ele>223.06214904785</ele>
        <time>2020-05-04T07:27:19.711Z</time>
      </trkpt>
      <trkpt lat="48.20147" lon="-4.22578">
        <ele>223.53216552734</ele>
        <time>2020-05-04T07:27:21.135Z</time>
      </trkpt>
      <trkpt lat="48.2016" lon="-4.22588">
        <ele>224.16806030273</ele>
        <time>2020-05-04T07:27:22.562Z</time>
      </trkpt>
      <trkpt lat="48.20181" lon="-4.22591">
        <ele>226.08432006836</ele>
        <time>2020-05-04T07:27:23.993Z</time>
      </trkpt>
      <trkpt lat="48.20185" lon="-4.22592">
        <ele>225.68838500977</ele>
        <time>2020-05-04T07:27:25.425Z</time>
      </trkpt>
      <trkpt lat="48.20201" lon="-4.22597">
        <ele>224.08743286133</ele>
        <time>2020-05-04T07:27:26.860Z</time>
      </trkpt>
      <trkpt lat="48.20211" lon="-4.22596">
        <ele>223.58352661133</ele>
        <time>2020-05-04T07:27:28.297Z</time>
      </trkpt>
      <trkpt lat="48.20218" lon="-4.22593">
        <ele>223.45155334473</ele>
        <time>2020-05-04T07:27:29.736Z</time>
      </trkpt>
      <trkpt lat="48.20233" lon="-4.22583">
        <ele>223.51153564453</ele>
        <time>2020-05-04T07:27:31.178Z</time>
      </trkpt>
      <trkpt lat="48.20243" lon="-4.22581">
        <ele>223.10360717773</ele>
        <time>2020-05-04T07:27:32.622Z</time>
      </trkpt>
      <trkpt lat="48.20251" lon="-4.22579">
        <ele>222.81565856934</ele>
        <time>2020-05-04T07:27:34.067Z</time>
      </trkpt>
      <trkpt lat="48.20259" lon="-4.22581">
        <ele>222.14376831055</ele>
        <time>2020-05-04T07:27:35.514Z</time>
      </trkpt>
      <trkpt lat="48.20258" lon="-4.22587">
        <ele>221.62785339355</ele>
        <time>2020-05-04T07:27:36.962Z</time>
      </trkpt>
      <trkpt lat="48.20259" lon="-4.22611">
        <ele>219.26425170898</ele>
        <time>2020-05-04T07:27:38.413Z</time>
      </trkpt>
      <trkpt lat="48.20253" lon="-4.22625">
        <ele>218.12124633789</ele>
        <time>2020-05-04T07:27:39.866Z</time>
      </trkpt>
      <trkpt lat="48.20237" lon="-4.22647">
        <ele>216.65748596191</ele>
        <time>2020-05-04T07:27:41.324Z</time>
      </trkpt>
      <trkpt lat="48.20189" lon="-4.22688">
        <ele>214.36587524414</ele>
        <time>2020-05-04T07:27:42.793Z</time>
      </trkpt>
      <trkpt lat="48.2016" lon="-4.22718">
        <ele>211.16734313965</ele>
        <time>2020-05-04T07:27:44.269Z</time>
      </trkpt>
      <trkpt lat="48.20133" lon="-4.22776">
        <ele>204.62843322754</ele>
        <time>2020-05-04T07:27:45.754Z</time>
      </trkpt>
      <trkpt lat="48.20125" lon="-4.22797">
        <ele>203.20146179199</ele>
        <time>2020-05-04T07:27:47.243Z</time>
      </trkpt>
      <trkpt lat="48.20131" lon="-4.22793">
        <ele>203.60939025879</ele>
        <time>2020-05-04T07:27:48.733Z</time>
      </trkpt>
      <trkpt lat="48.20209" lon="-4.22759">
        <ele>207.42057800293</ele>
        <time>2020-05-04T07:27:50.239Z</time>
      </trkpt>
      <trkpt lat="48.20221" lon="-4.22747">
        <ele>208.28443908691</ele>
        <time>2020-05-04T07:27:51.748Z</time>
      </trkpt>
      <trkpt lat="48.20272" lon="-4.22685">
        <ele>210.90313720703</ele>
        <time>2020-05-04T07:27:53.270Z</time>
      </trkpt>
      <trkpt lat="48.20285" lon="-4.22656">
        <ele>210.84315490723</ele>
        <time>2020-05-04T07:27:54.797Z</time>
      </trkpt>
      <trkpt lat="48.20286" lon="-4.2264">
        <ele>211.99496459961</ele>
        <time>2020-05-04T07:27:56.326Z</time>
      </trkpt>
      <trkpt lat="48.20285" lon="-4.22625">
        <ele>213.44671630859</ele>
        <time>2020-05-04T07:27:57.857Z</time>
      </trkpt>
      <trkpt lat="48.20285" lon="-4.22604">
        <ele>214.92106628418</ele>
        <time>2020-05-04T07:27:59.391Z</time>
      </trkpt>
      <trkpt lat="48.20289" lon="-4.22586">
        <ele>215.01704406738</ele>
        <time>2020-05-04T07:28:00.927Z</time>
      </trkpt>
      <trkpt lat="48.20293" lon="-4.22553">
        <ele>217.16619873047</ele>
        <time>2020-05-04T07:28:02.468Z</time>
      </trkpt>
      <trkpt lat="48.20296" lon="-4.22544">
        <ele>217.31016540527</ele>
        <time>2020-05-04T07:28:04.010Z</time>
      </trkpt>
      <trkpt lat="48.20306" lon="-4.22522">
        <ele>216.54048156738</ele>
        <time>2020-05-04T07:28:05.556Z</time>
      </trkpt>
      <trkpt lat="48.2031" lon="-4.225">
        <ele>216.10855102539</ele>
        <time>2020-05-04T07:28:07.105Z</time>
      </trkpt>
      <trkpt lat="48.20311" lon="-4.22445">
        <ele>218.00639343262</ele>
        <time>2020-05-04T07:28:08.661Z</time>
      </trkpt>
      <trkpt lat="48.20319" lon="-4.22385">
        <ele>217.29745483398</ele>
        <time>2020-05-04T07:28:10.225Z</time>
      </trkpt>
      <trkpt lat="48.2032" lon="-4.22355">
        <ele>217.40544128418</ele>
        <time>2020-05-04T07:28:11.793Z</time>
      </trkpt>
      <trkpt lat="48.20316" lon="-4.22296">
        <ele>219.12115478516</ele>
        <time>2020-05-04T07:28:13.369Z</time>
      </trkpt>
      <trkpt lat="48.20315" lon="-4.22285">
        <ele>219.50509643555</ele>
        <time>2020-05-04T07:28:14.947Z</time>
      </trkpt>
      <trkpt lat="48.20308" lon="-4.22259">
        <ele>220.8734588623</ele>
        <time>2020-05-04T07:28:16.529Z</time>
      </trkpt>
      <trkpt lat="48.20304" lon="-4.22241">
        <ele>221.4493560791</ele>
        <time>2020-05-04T07:28:18.113Z</time>
      </trkpt>
      <trkpt lat="48.20303" lon="-4.22228">
        <ele>221.50205993652</ele>
        <time>2020-05-04T07:28:19.699Z</time>
      </trkpt>
      <trkpt lat="48.20314" lon="-4.22088">
        <ele>214.4817199707</ele>
        <time>2020-05-04T07:28:21.304Z</time>
      </trkpt>
      <trkpt lat="48.20321" lon="-4.22024">
        <ele>208.42640686035</ele>
        <time>2020-05-04T07:28:22.917Z</time>
      </trkpt>
      <trkpt lat="48.20325" lon="-4.21991">
        <ele>205.73886108398</ele>
        <time>2020-05-04T07:28:24.535Z</time>
      </trkpt>
      <trkpt lat="48.20335" lon="-4.21961">
        <ele>201.53955078125</ele>
        <time>2020-05-04T07:28:26.157Z</time>
      </trkpt>
      <trkpt lat="48.20345" lon="-4.21942">
        <ele>197.98554992676</ele>
        <time>2020-05-04T07:28:27.783Z</time>
      </trkpt>
      <trkpt lat="48.20385" lon="-4.2189">
        <ele>190.15426635742</ele>
        <time>2020-05-04T07:28:29.419Z</time>
      </trkpt>
      <trkpt lat="48.20386" lon="-4.21882">
        <ele>189.87832641602</ele>
        <time>2020-05-04T07:28:31.056Z</time>
      </trkpt>
      <trkpt lat="48.20386" lon="-4.21877">
        <ele>189.81832885742</ele>
        <time>2020-05-04T07:28:32.694Z</time>
      </trkpt>
      <trkpt lat="48.20387" lon="-4.21842">
        <ele>189.21842956543</ele>
        <time>2020-05-04T07:28:34.337Z</time>
      </trkpt>
      <trkpt lat="48.20395" lon="-4.21795">
        <ele>187.01075744629</ele>
        <time>2020-05-04T07:28:35.986Z</time>
      </trkpt>
      <trkpt lat="48.20437" lon="-4.21618">
        <ele>178.32508850098</ele>
        <time>2020-05-04T07:28:37.660Z</time>
      </trkpt>
      <trkpt lat="48.20445" lon="-4.21583">
        <ele>176.86505126953</ele>
        <time>2020-05-04T07:28:39.339Z</time>
      </trkpt>
      <trkpt lat="48.20454" lon="-4.21549">
        <ele>175.48527526855</ele>
        <time>2020-05-04T07:28:41.023Z</time>
      </trkpt>
      <trkpt lat="48.20462" lon="-4.21532">
        <ele>174.41744995117</ele>
        <time>2020-05-04T07:28:42.710Z</time>
      </trkpt>
      <trkpt lat="48.20464" lon="-4.21496">
        <ele>173.37933349609</ele>
        <time>2020-05-04T07:28:44.402Z</time>
      </trkpt>
      <trkpt lat="48.20463" lon="-4.21488">
        <ele>173.43840026855</ele>
        <time>2020-05-04T07:28:46.095Z</time>
      </trkpt>
      <trkpt lat="48.20461" lon="-4.21477">
        <ele>173.70236206055</ele>
        <time>2020-05-04T07:28:47.789Z</time>
      </trkpt>
      <trkpt lat="48.20474" lon="-4.21517">
        <ele>172.80342102051</ele>
        <time>2020-05-04T07:28:49.489Z</time>
      </trkpt>
      <trkpt lat="48.2049" lon="-4.21577">
        <ele>172.25410461426</ele>
        <time>2020-05-04T07:28:51.198Z</time>
      </trkpt>
      <trkpt lat="48.20516" lon="-4.2166">
        <ele>170.91983032227</ele>
        <time>2020-05-04T07:28:52.919Z</time>
      </trkpt>
      <trkpt lat="48.20534" lon="-4.21704">
        <ele>168.69607543945</ele>
        <time>2020-05-04T07:28:54.647Z</time>
      </trkpt>
      <trkpt lat="48.20556" lon="-4.21744">
        <ele>165.16444396973</ele>
        <time>2020-05-04T07:28:56.382Z</time>
      </trkpt>
      <trkpt lat="48.2057" lon="-4.21787">
        <ele>163.5191192627</ele>
        <time>2020-05-04T07:28:58.123Z</time>
      </trkpt>
      <trkpt lat="48.20576" lon="-4.21814">
        <ele>163.3751373291</ele>
        <time>2020-05-04T07:28:59.868Z</time>
      </trkpt>
      <trkpt lat="48.2058" lon="-4.21824">
        <ele>163.0871887207</ele>
        <time>2020-05-04T07:29:01.615Z</time>
      </trkpt>
      <trkpt lat="48.20598" lon="-4.2184">
        <ele>160.88899230957</ele>
        <time>2020-05-04T07:29:03.366Z</time>
      </trkpt>
      <trkpt lat="48.20609" lon="-4.21852">
        <ele>158.83842468262</ele>
        <time>2020-05-04T07:29:05.120Z</time>
      </trkpt>
      <trkpt lat="48.20639" lon="-4.21913">
        <ele>153.50395202637</ele>
        <time>2020-05-04T07:29:06.884Z</time>
      </trkpt>
      <trkpt lat="48.20645" lon="-4.21926">
        <ele>152.90405273438</ele>
        <time>2020-05-04T07:29:08.650Z</time>
      </trkpt>
      <trkpt lat="48.20652" lon="-4.21951">
        <ele>152.53839111328</ele>
        <time>2020-05-04T07:29:10.420Z</time>
      </trkpt>
      <trkpt lat="48.20652" lon="-4.21957">
        <ele>152.68235778809</ele>
        <time>2020-05-04T07:29:12.190Z</time>
      </trkpt>
      <trkpt lat="48.20656" lon="-4.21991">
        <ele>153.24052429199</ele>
        <time>2020-05-04T07:29:13.965Z</time>
      </trkpt>
      <trkpt lat="48.20658" lon="-4.21995">
        <ele>153.0725402832</ele>
        <time>2020-05-04T07:29:15.741Z</time>
      </trkpt>
      <trkpt lat="48.20671" lon="-4.21979">
        <ele>149.96505737305</ele>
        <time>2020-05-04T07:29:17.520Z</time>
      </trkpt>
      <trkpt lat="48.20676" lon="-4.21978">
        <ele>149.01722717285</ele>
        <time>2020-05-04T07:29:19.300Z</time>
      </trkpt>
      <trkpt lat="48.20702" lon="-4.21979">
        <ele>144.66821289062</ele>
        <time>2020-05-04T07:29:21.085Z</time>
      </trkpt>
      <trkpt lat="48.20707" lon="-4.21983">
        <ele>144.02030944824</ele>
        <time>2020-05-04T07:29:22.871Z</time>
      </trkpt>
      <trkpt lat="48.20717" lon="-4.21984">
        <ele>142.38858032227</ele>
        <time>2020-05-04T07:29:24.659Z</time>
      </trkpt>
      <trkpt lat="48.20735" lon="-4.21954">
        <ele>137.92532348633</ele>
        <time>2020-05-04T07:29:26.453Z</time>
      </trkpt>
      <trkpt lat="48.20746" lon="-4.2193">
        <ele>135.10893249512</ele>
        <time>2020-05-04T07:29:28.251Z</time>
      </trkpt>
      <trkpt lat="48.20752" lon="-4.21926">
        <ele>133.95712280273</ele>
        <time>2020-05-04T07:29:30.050Z</time>
      </trkpt>
      <trkpt lat="48.20756" lon="-4.21927">
        <ele>133.32122802734</ele>
        <time>2020-05-04T07:29:31.850Z</time>
      </trkpt>
      <trkpt lat="48.20763" lon="-4.21933">
        <ele>132.40367126465</ele>
        <time>2020-05-04T07:29:33.651Z</time>
      </trkpt>
      <trkpt lat="48.20774" lon="-4.21948">
        <ele>131.10110473633</ele>
        <time>2020-05-04T07:29:35.455Z</time>
      </trkpt>
      <trkpt lat="48.20781" lon="-4.2196">
        <ele>130.00929260254</ele>
        <time>2020-05-04T07:29:37.261Z</time>
      </trkpt>
      <trkpt lat="48.20784" lon="-4.21946">
        <ele>129.54136657715</ele>
        <time>2020-05-04T07:29:39.069Z</time>
      </trkpt>
      <trkpt lat="48.20784" lon="-4.21945">
        <ele>129.5382232666</ele>
        <time>2020-05-04T07:29:40.878Z</time>
      </trkpt>
      <trkpt lat="48.20788" lon="-4.21898">
        <ele>127.84442901611</ele>
        <time>2020-05-04T07:29:42.693Z</time>
      </trkpt>
      <trkpt lat="48.20788" lon="-4.21848">
        <ele>126.37860870361</ele>
        <time>2020-05-04T07:29:44.515Z</time>
      </trkpt>
      <trkpt lat="48.20782" lon="-4.21765">
        <ele>124.17042541504</ele>
        <time>2020-05-04T07:29:46.348Z</time>
      </trkpt>
      <trkpt lat="48.2077" lon="-4.21752">
        <ele>119</ele>
        <extensions>
          <visugpx:TrkExtension xmlns:visugpx="https://www.visugpx.com/editgpx/">
            <visugpx:node>1</visugpx:node>
            </visugpx:TrkExtension>
        </extensions>
      </trkpt>
      <trkpt lat="48.20753" lon="-4.21758">
        <ele>118.2</ele>
      </trkpt>
      <trkpt lat="48.20744" lon="-4.21759">
        <ele>118.8</ele>
      </trkpt>
      <trkpt lat="48.20732" lon="-4.21756">
        <ele>120.1</ele>
      </trkpt>
      <trkpt lat="48.20722" lon="-4.21758">
        <ele>121.2</ele>
      </trkpt>
      <trkpt lat="48.20701" lon="-4.21766">
        <ele>123.8</ele>
      </trkpt>
      <trkpt lat="48.20689" lon="-4.21769">
        <ele>125.2</ele>
      </trkpt>
      <trkpt lat="48.20676" lon="-4.21773">
        <ele>126.8</ele>
      </trkpt>
      <trkpt lat="48.20669" lon="-4.21775">
        <ele>127.7</ele>
      </trkpt>
      <trkpt lat="48.20661" lon="-4.21777">
        <ele>129.1</ele>
      </trkpt>
      <trkpt lat="48.20653" lon="-4.21772">
        <ele>130.3</ele>
      </trkpt>
      <trkpt lat="48.20651" lon="-4.21762">
        <ele>130.4</ele>
      </trkpt>
      <trkpt lat="48.20648" lon="-4.21738">
        <ele>130.3</ele>
      </trkpt>
      <trkpt lat="48.20647" lon="-4.21717">
        <ele>130.1</ele>
      </trkpt>
      <trkpt lat="48.20648" lon="-4.2168">
        <ele>129.4</ele>
      </trkpt>
      <trkpt lat="48.20649" lon="-4.21652">
        <ele>128.3</ele>
      </trkpt>
      <trkpt lat="48.20648" lon="-4.21632">
        <ele>127.6</ele>
      </trkpt>
      <trkpt lat="48.20644" lon="-4.21601">
        <ele>127.5</ele>
      </trkpt>
      <trkpt lat="48.2064" lon="-4.21569">
        <ele>127</ele>
      </trkpt>
      <trkpt lat="48.20633" lon="-4.21504">
        <ele>124.8</ele>
      </trkpt>
      <trkpt lat="48.20629" lon="-4.21466">
        <ele>123.4</ele>
      </trkpt>
      <trkpt lat="48.20628" lon="-4.21439">
        <ele>121.5</ele>
      </trkpt>
      <trkpt lat="48.2063" lon="-4.21417">
        <ele>119.2</ele>
      </trkpt>
      <trkpt lat="48.2064" lon="-4.21394">
        <ele>115.2</ele>
      </trkpt>
      <trkpt lat="48.20648" lon="-4.21378">
        <ele>112.4</ele>
      </trkpt>
      <trkpt lat="48.20652" lon="-4.2136">
        <ele>110.8</ele>
      </trkpt>
      <trkpt lat="48.20658" lon="-4.21331">
        <ele>108.9</ele>
      </trkpt>
      <trkpt lat="48.20669" lon="-4.21302">
        <ele>107.6</ele>
      </trkpt>
      <trkpt lat="48.20674" lon="-4.21281">
        <ele>108.2</ele>
      </trkpt>
      <trkpt lat="48.20676" lon="-4.21264">
        <ele>108.8</ele>
      </trkpt>
      <trkpt lat="48.20679" lon="-4.21228">
        <ele>110.3</ele>
      </trkpt>
      <trkpt lat="48.20679" lon="-4.21198">
        <ele>112</ele>
      </trkpt>
      <trkpt lat="48.2068" lon="-4.21186">
        <ele>112.5</ele>
      </trkpt>
      <trkpt lat="48.20693" lon="-4.21155">
        <ele>111.6</ele>
      </trkpt>
      <trkpt lat="48.20703" lon="-4.21127">
        <ele>110.7</ele>
      </trkpt>
      <trkpt lat="48.20708" lon="-4.21111">
        <ele>110.2</ele>
      </trkpt>
      <trkpt lat="48.20721" lon="-4.21082">
        <ele>108.6</ele>
      </trkpt>
      <trkpt lat="48.20733" lon="-4.2106">
        <ele>106</ele>
      </trkpt>
      <trkpt lat="48.20743" lon="-4.21046">
        <ele>104</ele>
      </trkpt>
      <trkpt lat="48.20749" lon="-4.2103">
        <ele>102.6</ele>
      </trkpt>
      <trkpt lat="48.20765" lon="-4.20975">
        <ele>101.9</ele>
      </trkpt>
      <trkpt lat="48.20775" lon="-4.20941">
        <ele>103.1</ele>
      </trkpt>
      <trkpt lat="48.20789" lon="-4.209">
        <ele>104.2</ele>
      </trkpt>
      <trkpt lat="48.20799" lon="-4.20872">
        <ele>104.6</ele>
      </trkpt>
      <trkpt lat="48.20814" lon="-4.2084">
        <ele>104.5</ele>
      </trkpt>
      <trkpt lat="48.20831" lon="-4.20806">
        <ele>103.6</ele>
      </trkpt>
      <trkpt lat="48.20853" lon="-4.20756">
        <ele>102.4</ele>
      </trkpt>
      <trkpt lat="48.20872" lon="-4.20711">
        <ele>100.1</ele>
      </trkpt>
      <trkpt lat="48.20893" lon="-4.2066">
        <ele>98.2</ele>
      </trkpt>
      <trkpt lat="48.20935" lon="-4.20562">
        <ele>98</ele>
      </trkpt>
      <trkpt lat="48.20962" lon="-4.20495">
        <ele>101</ele>
      </trkpt>
      <trkpt lat="48.20973" lon="-4.2047">
        <ele>102</ele>
      </trkpt>
      <trkpt lat="48.20981" lon="-4.20455">
        <ele>102.6</ele>
      </trkpt>
      <trkpt lat="48.20985" lon="-4.2045">
        <ele>102.9</ele>
      </trkpt>
      <trkpt lat="48.20989" lon="-4.20441">
        <ele>103.4</ele>
      </trkpt>
      <trkpt lat="48.20989" lon="-4.20441">
        <ele>103.4</ele>
      </trkpt>
      <trkpt lat="48.20989" lon="-4.20437">
        <ele>103.6</ele>
      </trkpt>
      <trkpt lat="48.20995" lon="-4.20365">
        <ele>106.2</ele>
      </trkpt>
      <trkpt lat="48.20996" lon="-4.20304">
        <ele>106.3</ele>
      </trkpt>
      <trkpt lat="48.21003" lon="-4.20248">
        <ele>105</ele>
      </trkpt>
      <trkpt lat="48.21009" lon="-4.2023">
        <ele>104.5</ele>
      </trkpt>
      <trkpt lat="48.21019" lon="-4.20214">
        <ele>104.4</ele>
      </trkpt>
      <trkpt lat="48.21038" lon="-4.20192">
        <ele>104.5</ele>
      </trkpt>
      <trkpt lat="48.21049" lon="-4.20178">
        <ele>104.6</ele>
      </trkpt>
      <trkpt lat="48.21049" lon="-4.20178">
        <ele>104.6</ele>
      </trkpt>
      <trkpt lat="48.21044" lon="-4.20177">
        <ele>104.4</ele>
      </trkpt>
      <trkpt lat="48.20996" lon="-4.20165">
        <ele>101.9</ele>
      </trkpt>
      <trkpt lat="48.20967" lon="-4.20155">
        <ele>101.2</ele>
      </trkpt>
      <trkpt lat="48.2093" lon="-4.20146">
        <ele>100.5</ele>
      </trkpt>
      <trkpt lat="48.20875" lon="-4.20141">
        <ele>101.5</ele>
      </trkpt>
      <trkpt lat="48.20745" lon="-4.20137">
        <ele>106.7</ele>
      </trkpt>
      <trkpt lat="48.20562" lon="-4.20121">
        <ele>120.7</ele>
      </trkpt>
      <trkpt lat="48.20543" lon="-4.2012">
        <ele>122.8</ele>
      </trkpt>
      <trkpt lat="48.20533" lon="-4.20122">
        <ele>123.8</ele>
      </trkpt>
      <trkpt lat="48.2053" lon="-4.2011">
        <ele>124</ele>
      </trkpt>
      <trkpt lat="48.20522" lon="-4.20096">
        <ele>124.8</ele>
      </trkpt>
      <trkpt lat="48.20506" lon="-4.20081">
        <ele>126.3</ele>
      </trkpt>
      <trkpt lat="48.20489" lon="-4.20067">
        <ele>127.9</ele>
      </trkpt>
      <trkpt lat="48.20478" lon="-4.20051">
        <ele>128.7</ele>
      </trkpt>
      <trkpt lat="48.20467" lon="-4.20024">
        <ele>129.3</ele>
      </trkpt>
      <trkpt lat="48.20449" lon="-4.19989">
        <ele>130.1</ele>
      </trkpt>
      <trkpt lat="48.20434" lon="-4.19972">
        <ele>131.4</ele>
      </trkpt>
      <trkpt lat="48.20407" lon="-4.19948">
        <ele>134.7</ele>
      </trkpt>
      <trkpt lat="48.2039" lon="-4.19924">
        <ele>137.9</ele>
      </trkpt>
      <trkpt lat="48.20376" lon="-4.1989">
        <ele>139.5</ele>
      </trkpt>
      <trkpt lat="48.20359" lon="-4.19865">
        <ele>141.9</ele>
      </trkpt>
      <trkpt lat="48.20336" lon="-4.19829">
        <ele>145.1</ele>
      </trkpt>
      <trkpt lat="48.20326" lon="-4.19803">
        <ele>144.4</ele>
      </trkpt>
      <trkpt lat="48.20316" lon="-4.19791">
        <ele>144.5</ele>
      </trkpt>
      <trkpt lat="48.20317" lon="-4.19788">
        <ele>144.4</ele>
      </trkpt>
      <trkpt lat="48.20308" lon="-4.19774">
        <ele>144.5</ele>
      </trkpt>
      <trkpt lat="48.20298" lon="-4.19756">
        <ele>144.6</ele>
      </trkpt>
      <trkpt lat="48.20291" lon="-4.1973">
        <ele>144.7</ele>
      </trkpt>
      <trkpt lat="48.20289" lon="-4.1971">
        <ele>144.7</ele>
      </trkpt>
      <trkpt lat="48.20285" lon="-4.19685">
        <ele>144.7</ele>
      </trkpt>
      <trkpt lat="48.20286" lon="-4.19652">
        <ele>144.3</ele>
      </trkpt>
      <trkpt lat="48.20286" lon="-4.19633">
        <ele>144.4</ele>
      </trkpt>
      <trkpt lat="48.203" lon="-4.19631">
        <ele>142.6</ele>
      </trkpt>
      <trkpt lat="48.20303" lon="-4.1962">
        <ele>142.4</ele>
      </trkpt>
      <trkpt lat="48.20307" lon="-4.19604">
        <ele>142</ele>
      </trkpt>
      <trkpt lat="48.20321" lon="-4.19573">
        <ele>140.4</ele>
      </trkpt>
      <trkpt lat="48.20327" lon="-4.1955">
        <ele>139.7</ele>
      </trkpt>
      <trkpt lat="48.20324" lon="-4.19531">
        <ele>140</ele>
      </trkpt>
      <trkpt lat="48.20327" lon="-4.19504">
        <ele>139.7</ele>
      </trkpt>
      <trkpt lat="48.20341" lon="-4.19438">
        <ele>137.1</ele>
      </trkpt>
      <trkpt lat="48.20351" lon="-4.19379">
        <ele>134.4</ele>
      </trkpt>
      <trkpt lat="48.20364" lon="-4.19327">
        <ele>131</ele>
      </trkpt>
      <trkpt lat="48.20374" lon="-4.19302">
        <ele>128.6</ele>
      </trkpt>
      <trkpt lat="48.20394" lon="-4.19264">
        <ele>124.4</ele>
      </trkpt>
      <trkpt lat="48.20414" lon="-4.19227">
        <ele>121.1</ele>
      </trkpt>
      <trkpt lat="48.20424" lon="-4.19211">
        <ele>119.6</ele>
      </trkpt>
      <trkpt lat="48.20425" lon="-4.19196">
        <ele>119.2</ele>
      </trkpt>
      <trkpt lat="48.20423" lon="-4.19175">
        <ele>119.3</ele>
      </trkpt>
      <trkpt lat="48.2042" lon="-4.19144">
        <ele>118.5</ele>
      </trkpt>
      <trkpt lat="48.20417" lon="-4.19118">
        <ele>117.6</ele>
      </trkpt>
      <trkpt lat="48.20414" lon="-4.19093">
        <ele>116.7</ele>
      </trkpt>
      <trkpt lat="48.2041" lon="-4.19043">
        <ele>114</ele>
      </trkpt>
      <trkpt lat="48.2041" lon="-4.19036">
        <ele>113.4</ele>
      </trkpt>
      <trkpt lat="48.20413" lon="-4.19025">
        <ele>112.3</ele>
      </trkpt>
      <trkpt lat="48.2042" lon="-4.18887">
        <ele>107</ele>
      </trkpt>
      <trkpt lat="48.20423" lon="-4.1879">
        <ele>102.9</ele>
      </trkpt>
      <trkpt lat="48.2043" lon="-4.1877">
        <ele>101.2</ele>
      </trkpt>
      <trkpt lat="48.20453" lon="-4.18708">
        <ele>96.7</ele>
      </trkpt>
      <trkpt lat="48.20462" lon="-4.18648">
        <ele>94.3</ele>
      </trkpt>
      <trkpt lat="48.20479" lon="-4.18565">
        <ele>91.2</ele>
      </trkpt>
      <trkpt lat="48.20491" lon="-4.18502">
        <ele>88.3</ele>
      </trkpt>
      <trkpt lat="48.20499" lon="-4.18413">
        <ele>82.6</ele>
      </trkpt>
      <trkpt lat="48.20504" lon="-4.18336">
        <ele>73.8</ele>
      </trkpt>
      <trkpt lat="48.20507" lon="-4.18305">
        <ele>70.8</ele>
      </trkpt>
      <trkpt lat="48.20512" lon="-4.18274">
        <ele>67.9</ele>
      </trkpt>
      <trkpt lat="48.20525" lon="-4.18246">
        <ele>64.7</ele>
      </trkpt>
      <trkpt lat="48.20551" lon="-4.18207">
        <ele>60.8</ele>
      </trkpt>
      <trkpt lat="48.20561" lon="-4.18192">
        <ele>59.4</ele>
      </trkpt>
      <trkpt lat="48.20563" lon="-4.18168">
        <ele>58.3</ele>
      </trkpt>
      <trkpt lat="48.20575" lon="-4.18104">
        <ele>58.8</ele>
      </trkpt>
      <trkpt lat="48.20577" lon="-4.18043">
        <ele>58.2</ele>
      </trkpt>
      <trkpt lat="48.20577" lon="-4.18036">
        <ele>58.1</ele>
      </trkpt>
      <trkpt lat="48.20582" lon="-4.1791">
        <ele>58</ele>
      </trkpt>
      <trkpt lat="48.20584" lon="-4.17821">
        <ele>57.3</ele>
      </trkpt>
      <trkpt lat="48.2059" lon="-4.1776">
        <ele>59</ele>
      </trkpt>
      <trkpt lat="48.20592" lon="-4.17733">
        <ele>59.5</ele>
      </trkpt>
      <trkpt lat="48.20595" lon="-4.17707">
        <ele>59.7</ele>
      </trkpt>
      <trkpt lat="48.20605" lon="-4.1767">
        <ele>60.3</ele>
      </trkpt>
      <trkpt lat="48.20605" lon="-4.17645">
        <ele>59.7</ele>
      </trkpt>
      <trkpt lat="48.20601" lon="-4.17577">
        <ele>57.6</ele>
      </trkpt>
      <trkpt lat="48.20632" lon="-4.17578">
        <ele>58.6</ele>
      </trkpt>
      <trkpt lat="48.20683" lon="-4.17592">
        <ele>61.2</ele>
      </trkpt>
      <trkpt lat="48.20721" lon="-4.1761">
        <ele>63.3</ele>
      </trkpt>
      <trkpt lat="48.20753" lon="-4.17632">
        <ele>64.7</ele>
      </trkpt>
      <trkpt lat="48.20765" lon="-4.17641">
        <ele>65.2</ele>
      </trkpt>
      <trkpt lat="48.20788" lon="-4.17661">
        <ele>66.3</ele>
      </trkpt>
      <trkpt lat="48.21005" lon="-4.17797">
        <ele>79.8</ele>
      </trkpt>
      <trkpt lat="48.21029" lon="-4.17806">
        <ele>79.1</ele>
      </trkpt>
      <trkpt lat="48.21045" lon="-4.17805">
        <ele>78.6</ele>
      </trkpt>
      <trkpt lat="48.21043" lon="-4.17837">
        <ele>79</ele>
      </trkpt>
      <trkpt lat="48.21156" lon="-4.17913">
        <ele>72.1</ele>
      </trkpt>
      <trkpt lat="48.21221" lon="-4.17968">
        <ele>69.6</ele>
      </trkpt>
      <trkpt lat="48.2125" lon="-4.17962">
        <ele>69.4</ele>
      </trkpt>
      <trkpt lat="48.21254" lon="-4.1796">
        <ele>69.6</ele>
      </trkpt>
      <trkpt lat="48.21303" lon="-4.17939">
        <ele>71.6</ele>
      </trkpt>
      <trkpt lat="48.21327" lon="-4.1794">
        <ele>72.3</ele>
      </trkpt>
      <trkpt lat="48.21433" lon="-4.17976">
        <ele>74.1</ele>
      </trkpt>
      <trkpt lat="48.21441" lon="-4.17982">
        <ele>74.3</ele>
      </trkpt>
      <trkpt lat="48.21519" lon="-4.18033">
        <ele>77</ele>
      </trkpt>
      <trkpt lat="48.21568" lon="-4.18069">
        <ele>78.5</ele>
      </trkpt>
      <trkpt lat="48.21589" lon="-4.18081">
        <ele>78.7</ele>
      </trkpt>
      <trkpt lat="48.2162" lon="-4.18101">
        <ele>77.5</ele>
      </trkpt>
      <trkpt lat="48.21632" lon="-4.18112">
        <ele>77</ele>
      </trkpt>
      <trkpt lat="48.2165" lon="-4.18073">
        <ele>75.5</ele>
      </trkpt>
      <trkpt lat="48.21671" lon="-4.18027">
        <ele>73.3</ele>
      </trkpt>
      <trkpt lat="48.21678" lon="-4.18009">
        <ele>72.3</ele>
      </trkpt>
      <trkpt lat="48.21679" lon="-4.18022">
        <ele>72.6</ele>
      </trkpt>
      <trkpt lat="48.21682" lon="-4.18058">
        <ele>73.4</ele>
      </trkpt>
      <trkpt lat="48.21686" lon="-4.18103">
        <ele>74.2</ele>
      </trkpt>
      <trkpt lat="48.21696" lon="-4.18159">
        <ele>74.8</ele>
      </trkpt>
      <trkpt lat="48.217" lon="-4.18182">
        <ele>74.7</ele>
      </trkpt>
      <trkpt lat="48.217" lon="-4.18211">
        <ele>74.6</ele>
      </trkpt>
      <trkpt lat="48.21697" lon="-4.18232">
        <ele>74.6</ele>
      </trkpt>
      <trkpt lat="48.21688" lon="-4.18271">
        <ele>73.8</ele>
      </trkpt>
      <trkpt lat="48.21664" lon="-4.18353">
        <ele>71.5</ele>
      </trkpt>
      <trkpt lat="48.21632" lon="-4.1846">
        <ele>70.9</ele>
      </trkpt>
      <trkpt lat="48.21627" lon="-4.18485">
        <ele>70.7</ele>
      </trkpt>
      <trkpt lat="48.21627" lon="-4.18504">
        <ele>70.2</ele>
      </trkpt>
      <trkpt lat="48.21632" lon="-4.18564">
        <ele>69.1</ele>
      </trkpt>
      <trkpt lat="48.21647" lon="-4.18617">
        <ele>67.5</ele>
      </trkpt>
      <trkpt lat="48.21659" lon="-4.18656">
        <ele>66.5</ele>
      </trkpt>
      <trkpt lat="48.21668" lon="-4.18688">
        <ele>65.1</ele>
      </trkpt>
      <trkpt lat="48.21684" lon="-4.18756">
        <ele>60.5</ele>
      </trkpt>
      <trkpt lat="48.21698" lon="-4.18784">
        <ele>57.5</ele>
      </trkpt>
      <trkpt lat="48.21721" lon="-4.18827">
        <ele>53</ele>
      </trkpt>
      <trkpt lat="48.21735" lon="-4.18846">
        <ele>50.8</ele>
      </trkpt>
      <trkpt lat="48.21753" lon="-4.18849">
        <ele>49.5</ele>
      </trkpt>
      <trkpt lat="48.21765" lon="-4.18838">
        <ele>51.1</ele>
      </trkpt>
      <trkpt lat="48.21773" lon="-4.18816">
        <ele>52.9</ele>
      </trkpt>
      <trkpt lat="48.21776" lon="-4.18793">
        <ele>54.1</ele>
      </trkpt>
      <trkpt lat="48.21779" lon="-4.18762">
        <ele>55.6</ele>
      </trkpt>
      <trkpt lat="48.21783" lon="-4.18734">
        <ele>57.3</ele>
      </trkpt>
      <trkpt lat="48.21795" lon="-4.18713">
        <ele>59.3</ele>
      </trkpt>
      <trkpt lat="48.21811" lon="-4.18707">
        <ele>61.1</ele>
      </trkpt>
      <trkpt lat="48.21827" lon="-4.18719">
        <ele>62.2</ele>
      </trkpt>
      <trkpt lat="48.21846" lon="-4.18687">
        <ele>65</ele>
      </trkpt>
      <trkpt lat="48.2187" lon="-4.18607">
        <ele>67.3</ele>
      </trkpt>
      <trkpt lat="48.21887" lon="-4.18551">
        <ele>67.4</ele>
      </trkpt>
      <trkpt lat="48.21891" lon="-4.18524">
        <ele>66.5</ele>
      </trkpt>
      <trkpt lat="48.21911" lon="-4.18451">
        <ele>63.9</ele>
      </trkpt>
      <trkpt lat="48.21935" lon="-4.18367">
        <ele>60.9</ele>
      </trkpt>
      <trkpt lat="48.2195" lon="-4.18329">
        <ele>60.6</ele>
      </trkpt>
      <trkpt lat="48.21957" lon="-4.18324">
        <ele>61.5</ele>
      </trkpt>
      <trkpt lat="48.21961" lon="-4.18325">
        <ele>62.1</ele>
      </trkpt>
      <trkpt lat="48.21974" lon="-4.18339">
        <ele>64.5</ele>
      </trkpt>
      <trkpt lat="48.22015" lon="-4.18389">
        <ele>71.1</ele>
      </trkpt>
      <trkpt lat="48.22062" lon="-4.1843">
        <ele>74.2</ele>
      </trkpt>
      <trkpt lat="48.22075" lon="-4.18433">
        <ele>74.6</ele>
      </trkpt>
      <trkpt lat="48.22121" lon="-4.18436">
        <ele>74.4</ele>
      </trkpt>
      <trkpt lat="48.2216" lon="-4.1844">
        <ele>73.9</ele>
      </trkpt>
      <trkpt lat="48.22138" lon="-4.18423">
        <ele>73.6</ele>
      </trkpt>
      <trkpt lat="48.22112" lon="-4.18402">
        <ele>73.4</ele>
      </trkpt>
      <trkpt lat="48.22097" lon="-4.18384">
        <ele>72.9</ele>
      </trkpt>
      <trkpt lat="48.22086" lon="-4.1837">
        <ele>72.4</ele>
      </trkpt>
      <trkpt lat="48.22082" lon="-4.18357">
        <ele>71.8</ele>
      </trkpt>
      <trkpt lat="48.22078" lon="-4.18336">
        <ele>70.9</ele>
      </trkpt>
      <trkpt lat="48.22078" lon="-4.18319">
        <ele>70.3</ele>
      </trkpt>
      <trkpt lat="48.22089" lon="-4.18323">
        <ele>70.9</ele>
      </trkpt>
      <trkpt lat="48.22103" lon="-4.18335">
        <ele>71.8</ele>
      </trkpt>
      <trkpt lat="48.22116" lon="-4.18352">
        <ele>72.5</ele>
      </trkpt>
      <trkpt lat="48.22143" lon="-4.18378">
        <ele>73.2</ele>
      </trkpt>
      <trkpt lat="48.22165" lon="-4.18397">
        <ele>73.2</ele>
      </trkpt>
      <trkpt lat="48.22179" lon="-4.18406">
        <ele>73.7</ele>
      </trkpt>
      <trkpt lat="48.22201" lon="-4.18417">
        <ele>74.7</ele>
      </trkpt>
      <trkpt lat="48.22226" lon="-4.18426">
        <ele>75.9</ele>
      </trkpt>
      <trkpt lat="48.22242" lon="-4.18427">
        <ele>76.5</ele>
      </trkpt>
      <trkpt lat="48.2225" lon="-4.1843">
        <ele>76.8</ele>
      </trkpt>
      <trkpt lat="48.22261" lon="-4.18446">
        <ele>77.2</ele>
      </trkpt>
      <trkpt lat="48.22296" lon="-4.18529">
        <ele>78.6</ele>
      </trkpt>
      <trkpt lat="48.22321" lon="-4.18586">
        <ele>79.3</ele>
      </trkpt>
      <trkpt lat="48.22462" lon="-4.18575">
        <ele>84.4</ele>
      </trkpt>
      <trkpt lat="48.22492" lon="-4.18562">
        <ele>83.7</ele>
      </trkpt>
      <trkpt lat="48.22502" lon="-4.18554">
        <ele>83.6</ele>
      </trkpt>
      <trkpt lat="48.22516" lon="-4.18533">
        <ele>82.8</ele>
      </trkpt>
      <trkpt lat="48.22526" lon="-4.18533">
        <ele>81.9</ele>
      </trkpt>
      <trkpt lat="48.22547" lon="-4.18533">
        <ele>80.1</ele>
      </trkpt>
      <trkpt lat="48.22573" lon="-4.18528">
        <ele>77.9</ele>
      </trkpt>
      <trkpt lat="48.22595" lon="-4.18524">
        <ele>77</ele>
      </trkpt>
      <trkpt lat="48.22606" lon="-4.18521">
        <ele>77</ele>
      </trkpt>
      <trkpt lat="48.22623" lon="-4.18501">
        <ele>77.5</ele>
      </trkpt>
      <trkpt lat="48.22643" lon="-4.18479">
        <ele>77.8</ele>
      </trkpt>
      <trkpt lat="48.22654" lon="-4.18466">
        <ele>78</ele>
      </trkpt>
      <trkpt lat="48.22659" lon="-4.18463">
        <ele>78</ele>
      </trkpt>
      <trkpt lat="48.22662" lon="-4.18471">
        <ele>77.7</ele>
      </trkpt>
      <trkpt lat="48.22662" lon="-4.18473">
        <ele>77.7</ele>
      </trkpt>
      <trkpt lat="48.22656" lon="-4.18516">
        <ele>76.7</ele>
      </trkpt>
      <trkpt lat="48.22628" lon="-4.18707">
        <ele>68.9</ele>
      </trkpt>
      <trkpt lat="48.22625" lon="-4.18736">
        <ele>67.6</ele>
      </trkpt>
      <trkpt lat="48.22625" lon="-4.18737">
        <ele>67.6</ele>
      </trkpt>
      <trkpt lat="48.22604" lon="-4.18782">
        <ele>67.1</ele>
      </trkpt>
      <trkpt lat="48.22597" lon="-4.18936">
        <ele>58.5</ele>
      </trkpt>
      <trkpt lat="48.22594" lon="-4.19106">
        <ele>52.5</ele>
      </trkpt>
      <trkpt lat="48.22594" lon="-4.19118">
        <ele>52</ele>
      </trkpt>
      <trkpt lat="48.22593" lon="-4.19221">
        <ele>49.8</ele>
      </trkpt>
      <trkpt lat="48.22583" lon="-4.19359">
        <ele>49.3</ele>
      </trkpt>
      <trkpt lat="48.22555" lon="-4.19475">
        <ele>47.1</ele>
      </trkpt>
      <trkpt lat="48.22536" lon="-4.19531">
        <ele>44</ele>
      </trkpt>
      <trkpt lat="48.22561" lon="-4.19583">
        <ele>43.1</ele>
      </trkpt>
      <trkpt lat="48.22564" lon="-4.19622">
        <ele>40</ele>
      </trkpt>
      <trkpt lat="48.22525" lon="-4.1964">
        <ele>36</ele>
      </trkpt>
      <trkpt lat="48.22516" lon="-4.19647">
        <ele>35.1</ele>
      </trkpt>
      <trkpt lat="48.22513" lon="-4.19658">
        <ele>34.1</ele>
      </trkpt>
      <trkpt lat="48.22503" lon="-4.19704">
        <ele>34.8</ele>
      </trkpt>
      <trkpt lat="48.22474" lon="-4.19737">
        <ele>40.1</ele>
      </trkpt>
      <trkpt lat="48.22443" lon="-4.19787">
        <ele>42.5</ele>
      </trkpt>
      <trkpt lat="48.22408" lon="-4.19817">
        <ele>46</ele>
      </trkpt>
      <trkpt lat="48.22404" lon="-4.1982">
        <ele>46.1</ele>
        <extensions>
          <visugpx:TrkExtension xmlns:visugpx="https://www.visugpx.com/editgpx/">
            <visugpx:node>2</visugpx:node>
            </visugpx:TrkExtension>
        </extensions>
      </trkpt>
      <trkpt lat="48.22366" lon="-4.19841">
        <ele>48.1</ele>
      </trkpt>
      <trkpt lat="48.22318" lon="-4.19849">
        <ele>55.2</ele>
      </trkpt>
      <trkpt lat="48.22257" lon="-4.19854">
        <ele>58.5</ele>
      </trkpt>
      <trkpt lat="48.22187" lon="-4.19896">
        <ele>67.5</ele>
      </trkpt>
      <trkpt lat="48.22149" lon="-4.19925">
        <ele>71.7</ele>
      </trkpt>
      <trkpt lat="48.22114" lon="-4.19951">
        <ele>73.9</ele>
      </trkpt>
      <trkpt lat="48.22092" lon="-4.19972">
        <ele>74.7</ele>
        <extensions>
          <visugpx:TrkExtension xmlns:visugpx="https://www.visugpx.com/editgpx/">
            <visugpx:node>3</visugpx:node>
            </visugpx:TrkExtension>
        </extensions>
      </trkpt>
      <trkpt lat="48.21998" lon="-4.2006">
        <ele>82.9</ele>
      </trkpt>
      <trkpt lat="48.21893" lon="-4.20207">
        <ele>85.6</ele>
      </trkpt>
      <trkpt lat="48.21823" lon="-4.20309">
        <ele>90.1</ele>
      </trkpt>
      <trkpt lat="48.21819" lon="-4.20318">
        <ele>90.3</ele>
        <extensions>
          <visugpx:TrkExtension xmlns:visugpx="https://www.visugpx.com/editgpx/">
            <visugpx:node>4</visugpx:node>
            </visugpx:TrkExtension>
        </extensions>
      </trkpt>
      <trkpt lat="48.21792" lon="-4.20384">
        <ele>94</ele>
      </trkpt>
      <trkpt lat="48.21756" lon="-4.20486">
        <ele>102.4</ele>
      </trkpt>
      <trkpt lat="48.21708" lon="-4.20611">
        <ele>104.7</ele>
      </trkpt>
      <trkpt lat="48.21651" lon="-4.20702">
        <ele>106.4</ele>
      </trkpt>
      <trkpt lat="48.21649" lon="-4.20716">
        <ele>106.7</ele>
      </trkpt>
      <trkpt lat="48.21608" lon="-4.20771">
        <ele>109.2</ele>
      </trkpt>
      <trkpt lat="48.21536" lon="-4.20881">
        <ele>109.4</ele>
      </trkpt>
      <trkpt lat="48.21515" lon="-4.20912">
        <ele>108.7</ele>
        <extensions>
          <visugpx:TrkExtension xmlns:visugpx="https://www.visugpx.com/editgpx/">
            <visugpx:node>5</visugpx:node>
            </visugpx:TrkExtension>
        </extensions>
      </trkpt>
      <trkpt lat="48.21342" lon="-4.21167">
        <ele>120.9</ele>
      </trkpt>
      <trkpt lat="48.2133" lon="-4.21186">
        <ele>120</ele>
      </trkpt>
      <trkpt lat="48.21299" lon="-4.21236">
        <ele>122.8</ele>
        <extensions>
          <visugpx:TrkExtension xmlns:visugpx="https://www.visugpx.com/editgpx/">
            <visugpx:node>7</visugpx:node>
            </visugpx:TrkExtension>
        </extensions>
      </trkpt>
      <trkpt lat="48.21289" lon="-4.21254">
        <ele>127.4</ele>
      </trkpt>
      <trkpt lat="48.21336" lon="-4.21301">
        <ele>132.8</ele>
      </trkpt>
      <trkpt lat="48.21369" lon="-4.21359">
        <ele>139.1</ele>
        <extensions>
          <visugpx:TrkExtension xmlns:visugpx="https://www.visugpx.com/editgpx/">
            <visugpx:node>8</visugpx:node>
            </visugpx:TrkExtension>
        </extensions>
      </trkpt>
      <trkpt lat="48.21377" lon="-4.21373">
        <ele>140.1</ele>
      </trkpt>
      <trkpt lat="48.21445" lon="-4.21487">
        <ele>150.9</ele>
      </trkpt>
      <trkpt lat="48.21463" lon="-4.21513">
        <ele>154.1</ele>
        <extensions>
          <visugpx:TrkExtension xmlns:visugpx="https://www.visugpx.com/editgpx/">
            <visugpx:node>9</visugpx:node>
            </visugpx:TrkExtension>
        </extensions>
      </trkpt>
      <trkpt lat="48.21559" lon="-4.21658">
        <ele>166.4</ele>
        <extensions>
          <visugpx:TrkExtension xmlns:visugpx="https://www.visugpx.com/editgpx/">
            <visugpx:node>10</visugpx:node>
            </visugpx:TrkExtension>
        </extensions>
      </trkpt>
      <trkpt lat="48.21563" lon="-4.21663">
        <ele>166.9</ele>
      </trkpt>
      <trkpt lat="48.2157" lon="-4.21685">
        <ele>169.6</ele>
      </trkpt>
      <trkpt lat="48.21574" lon="-4.21711">
        <ele>170.3</ele>
      </trkpt>
      <trkpt lat="48.21576" lon="-4.21742">
        <ele>172.3</ele>
      </trkpt>
      <trkpt lat="48.21576" lon="-4.21742">
        <ele>172.3</ele>
        <extensions>
          <visugpx:TrkExtension xmlns:visugpx="https://www.visugpx.com/editgpx/">
            <visugpx:node>11</visugpx:node>
            </visugpx:TrkExtension>
        </extensions>
      </trkpt>
      <trkpt lat="48.21581" lon="-4.21803">
        <ele>174.82949829102</ele>
        <time>2020-05-04T07:36:19.615Z</time>
        <extensions>
          <visugpx:TrkExtension xmlns:visugpx="https://www.visugpx.com/editgpx/">
            <visugpx:node>1</visugpx:node>
            </visugpx:TrkExtension>
        </extensions>
      </trkpt>
      <trkpt lat="48.21538" lon="-4.21828">
        <ele>174.71440124512</ele>
        <time>2020-05-04T07:36:22.554Z</time>
      </trkpt>
      <trkpt lat="48.21487" lon="-4.21871">
        <ele>174.85794067383</ele>
        <time>2020-05-04T07:36:25.505Z</time>
      </trkpt>
      <trkpt lat="48.21475" lon="-4.21884">
        <ele>174.92991638184</ele>
        <time>2020-05-04T07:36:28.459Z</time>
      </trkpt>
      <trkpt lat="48.21442" lon="-4.21916">
        <ele>174.85794067383</ele>
        <time>2020-05-04T07:36:31.421Z</time>
      </trkpt>
      <trkpt lat="48.21398" lon="-4.21969">
        <ele>175.67054748535</ele>
        <time>2020-05-04T07:36:34.394Z</time>
      </trkpt>
      <trkpt lat="48.21391" lon="-4.21978">
        <ele>175.76654052734</ele>
        <time>2020-05-04T07:36:37.369Z</time>
      </trkpt>
      <trkpt lat="48.21386" lon="-4.21986">
        <ele>175.91050720215</ele>
        <time>2020-05-04T07:36:40.346Z</time>
      </trkpt>
      <trkpt lat="48.21359" lon="-4.22042">
        <ele>177.13737487793</ele>
        <time>2020-05-04T07:36:43.332Z</time>
      </trkpt>
      <trkpt lat="48.21345" lon="-4.22077">
        <ele>178.30088806152</ele>
        <time>2020-05-04T07:36:46.323Z</time>
      </trkpt>
      <trkpt lat="48.21342" lon="-4.22094">
        <ele>178.86479187012</ele>
        <time>2020-05-04T07:36:49.317Z</time>
      </trkpt>
      <trkpt lat="48.21342" lon="-4.2211">
        <ele>179.6326751709</ele>
        <time>2020-05-04T07:36:52.313Z</time>
      </trkpt>
      <trkpt lat="48.21342" lon="-4.22112">
        <ele>179.72546386719</ele>
        <time>2020-05-04T07:36:55.309Z</time>
      </trkpt>
      <trkpt lat="48.21343" lon="-4.22125">
        <ele>179.88581848145</ele>
        <time>2020-05-04T07:36:58.307Z</time>
      </trkpt>
      <trkpt lat="48.21351" lon="-4.22148">
        <ele>180.77703857422</ele>
        <time>2020-05-04T07:37:01.308Z</time>
      </trkpt>
      <trkpt lat="48.2137" lon="-4.22181">
        <ele>182.56332397461</ele>
        <time>2020-05-04T07:37:04.315Z</time>
      </trkpt>
      <trkpt lat="48.21386" lon="-4.22199">
        <ele>184.46627807617</ele>
        <time>2020-05-04T07:37:07.326Z</time>
      </trkpt>
      <trkpt lat="48.21423" lon="-4.22243">
        <ele>188.60670471191</ele>
        <time>2020-05-04T07:37:10.347Z</time>
      </trkpt>
      <trkpt lat="48.21453" lon="-4.2226">
        <ele>191.01602172852</ele>
        <time>2020-05-04T07:37:13.374Z</time>
      </trkpt>
      <trkpt lat="48.21466" lon="-4.22267">
        <ele>191.9638671875</ele>
        <time>2020-05-04T07:37:16.404Z</time>
      </trkpt>
      <trkpt lat="48.21481" lon="-4.22282">
        <ele>193.18347167969</ele>
        <time>2020-05-04T07:37:19.437Z</time>
      </trkpt>
      <trkpt lat="48.21488" lon="-4.22295">
        <ele>193.75936889648</ele>
        <time>2020-05-04T07:37:22.473Z</time>
      </trkpt>
      <trkpt lat="48.21493" lon="-4.2231">
        <ele>194.9831237793</ele>
        <time>2020-05-04T07:37:25.511Z</time>
      </trkpt>
      <trkpt lat="48.21501" lon="-4.22346">
        <ele>198.53453063965</ele>
        <time>2020-05-04T07:37:28.554Z</time>
      </trkpt>
      <trkpt lat="48.21501" lon="-4.22348">
        <ele>198.67849731445</ele>
        <time>2020-05-04T07:37:31.597Z</time>
      </trkpt>
      <trkpt lat="48.21524" lon="-4.2242">
        <ele>203.1146697998</ele>
        <time>2020-05-04T07:37:34.651Z</time>
      </trkpt>
      <trkpt lat="48.21532" lon="-4.22443">
        <ele>204.57135009766</ele>
        <time>2020-05-04T07:37:37.708Z</time>
      </trkpt>
      <trkpt lat="48.21552" lon="-4.2239">
        <ele>204.07450866699</ele>
        <time>2020-05-04T07:37:40.774Z</time>
      </trkpt>
      <trkpt lat="48.21565" lon="-4.22372">
        <ele>204.42245483398</ele>
        <time>2020-05-04T07:37:43.843Z</time>
      </trkpt>
      <trkpt lat="48.21572" lon="-4.2237">
        <ele>204.79438781738</ele>
        <time>2020-05-04T07:37:46.913Z</time>
      </trkpt>
      <trkpt lat="48.21624" lon="-4.22377">
        <ele>208.44184875488</ele>
        <time>2020-05-04T07:37:49.994Z</time>
      </trkpt>
      <trkpt lat="48.2164" lon="-4.22383">
        <ele>209.68963623047</ele>
        <time>2020-05-04T07:37:53.078Z</time>
      </trkpt>
      <trkpt lat="48.21656" lon="-4.22394">
        <ele>211.4019317627</ele>
        <time>2020-05-04T07:37:56.166Z</time>
      </trkpt>
      <trkpt lat="48.21675" lon="-4.22407">
        <ele>213.93351745605</ele>
        <time>2020-05-04T07:37:59.258Z</time>
      </trkpt>
      <trkpt lat="48.2169" lon="-4.22414">
        <ele>215.42474365234</ele>
        <time>2020-05-04T07:38:02.353Z</time>
      </trkpt>
      <trkpt lat="48.21719" lon="-4.22414">
        <ele>217.27256774902</ele>
        <time>2020-05-04T07:38:05.454Z</time>
      </trkpt>
      <trkpt lat="48.21733" lon="-4.22419">
        <ele>218.70031738281</ele>
        <time>2020-05-04T07:38:08.558Z</time>
      </trkpt>
      <trkpt lat="48.21746" lon="-4.22419">
        <ele>219.63616943359</ele>
        <time>2020-05-04T07:38:11.664Z</time>
      </trkpt>
      <trkpt lat="48.2176" lon="-4.22423">
        <ele>220.97994995117</ele>
        <time>2020-05-04T07:38:14.773Z</time>
      </trkpt>
      <trkpt lat="48.21776" lon="-4.2241">
        <ele>220.87187194824</ele>
        <time>2020-05-04T07:38:17.886Z</time>
      </trkpt>
      <trkpt lat="48.21789" lon="-4.22409">
        <ele>221.56774902344</ele>
        <time>2020-05-04T07:38:21.001Z</time>
      </trkpt>
      <trkpt lat="48.21793" lon="-4.22412">
        <ele>222.05967712402</ele>
        <time>2020-05-04T07:38:24.117Z</time>
      </trkpt>
      <trkpt lat="48.21795" lon="-4.22413">
        <ele>222.27955627441</ele>
        <time>2020-05-04T07:38:27.234Z</time>
      </trkpt>
      <trkpt lat="48.21808" lon="-4.22431">
        <ele>225.31504821777</ele>
        <time>2020-05-04T07:38:30.354Z</time>
      </trkpt>
      <trkpt lat="48.21827" lon="-4.22448">
        <ele>228.6827545166</ele>
        <time>2020-05-04T07:38:33.479Z</time>
      </trkpt>
      <trkpt lat="48.21836" lon="-4.22471">
        <ele>231.76182556152</ele>
        <time>2020-05-04T07:38:36.607Z</time>
      </trkpt>
      <trkpt lat="48.21844" lon="-4.22487">
        <ele>234.35339355469</ele>
        <time>2020-05-04T07:38:39.738Z</time>
      </trkpt>
      <trkpt lat="48.21849" lon="-4.22489">
        <ele>235.41670227051</ele>
        <time>2020-05-04T07:38:42.870Z</time>
      </trkpt>
      <trkpt lat="48.21855" lon="-4.22489">
        <ele>236.56851196289</ele>
        <time>2020-05-04T07:38:46.003Z</time>
      </trkpt>
      <trkpt lat="48.21882" lon="-4.22474">
        <ele>240.13191223145</ele>
        <time>2020-05-04T07:38:49.142Z</time>
      </trkpt>
      <trkpt lat="48.21894" lon="-4.2246">
        <ele>240.92378234863</ele>
        <time>2020-05-04T07:38:52.284Z</time>
      </trkpt>
      <trkpt lat="48.21903" lon="-4.2245">
        <ele>241.57167053223</ele>
        <time>2020-05-04T07:38:55.428Z</time>
      </trkpt>
      <trkpt lat="48.21952" lon="-4.22414">
        <ele>246.52195739746</ele>
        <time>2020-05-04T07:38:58.583Z</time>
      </trkpt>
      <trkpt lat="48.21986" lon="-4.22392">
        <ele>250.5544128418</ele>
        <time>2020-05-04T07:39:01.746Z</time>
      </trkpt>
      <trkpt lat="48.22032" lon="-4.22369">
        <ele>254.19346618652</ele>
        <time>2020-05-04T07:39:04.918Z</time>
      </trkpt>
      <trkpt lat="48.22034" lon="-4.22367">
        <ele>254.12147521973</ele>
        <time>2020-05-04T07:39:08.091Z</time>
      </trkpt>
      <trkpt lat="48.2204" lon="-4.22374">
        <ele>255.30928039551</ele>
        <time>2020-05-04T07:39:11.265Z</time>
      </trkpt>
      <trkpt lat="48.22054" lon="-4.22441">
        <ele>262.6491394043</ele>
        <time>2020-05-04T07:39:14.449Z</time>
      </trkpt>
      <trkpt lat="48.22057" lon="-4.22449">
        <ele>263.552734375</ele>
        <time>2020-05-04T07:39:17.634Z</time>
      </trkpt>
      <trkpt lat="48.22066" lon="-4.22464">
        <ele>265.60437011719</ele>
        <time>2020-05-04T07:39:20.822Z</time>
      </trkpt>
      <trkpt lat="48.22077" lon="-4.22473">
        <ele>266.77032470703</ele>
        <time>2020-05-04T07:39:24.012Z</time>
      </trkpt>
      <trkpt lat="48.22087" lon="-4.22479">
        <ele>267.32223510742</ele>
        <time>2020-05-04T07:39:27.204Z</time>
      </trkpt>
      <trkpt lat="48.22111" lon="-4.22488">
        <ele>267.88327026367</ele>
        <time>2020-05-04T07:39:30.401Z</time>
      </trkpt>
      <trkpt lat="48.2212" lon="-4.2249">
        <ele>267.91928100586</ele>
        <time>2020-05-04T07:39:33.600Z</time>
      </trkpt>
      <trkpt lat="48.22126" lon="-4.22491">
        <ele>267.91928100586</ele>
        <time>2020-05-04T07:39:36.800Z</time>
      </trkpt>
      <trkpt lat="48.22133" lon="-4.22496">
        <ele>267.78143310547</ele>
        <time>2020-05-04T07:39:40.002Z</time>
      </trkpt>
      <trkpt lat="48.2213" lon="-4.22512">
        <ele>267.87741088867</ele>
        <time>2020-05-04T07:39:43.206Z</time>
      </trkpt>
      <trkpt lat="48.22124" lon="-4.22531">
        <ele>268.44689941406</ele>
        <time>2020-05-04T07:39:46.413Z</time>
      </trkpt>
      <trkpt lat="48.22109" lon="-4.22567">
        <ele>272.91015625</ele>
        <time>2020-05-04T07:39:49.626Z</time>
      </trkpt>
      <trkpt lat="48.22097" lon="-4.2261">
        <ele>277.67337036133</ele>
        <time>2020-05-04T07:39:52.845Z</time>
      </trkpt>
      <trkpt lat="48.22093" lon="-4.22624">
        <ele>278.65905761719</ele>
        <time>2020-05-04T07:39:56.066Z</time>
      </trkpt>
      <trkpt lat="48.22082" lon="-4.22644">
        <ele>280.43478393555</ele>
        <time>2020-05-04T07:39:59.290Z</time>
      </trkpt>
      <trkpt lat="48.22079" lon="-4.22688">
        <ele>282.30645751953</ele>
        <time>2020-05-04T07:40:02.520Z</time>
      </trkpt>
      <trkpt lat="48.22085" lon="-4.22744">
        <ele>285.99423217773</ele>
        <time>2020-05-04T07:40:05.758Z</time>
      </trkpt>
      <trkpt lat="48.22084" lon="-4.2275">
        <ele>286.57012939453</ele>
        <time>2020-05-04T07:40:08.997Z</time>
      </trkpt>
      <trkpt lat="48.22081" lon="-4.22753">
        <ele>287.21801757812</ele>
        <time>2020-05-04T07:40:12.236Z</time>
      </trkpt>
      <trkpt lat="48.22073" lon="-4.22751">
        <ele>288.2258605957</ele>
        <time>2020-05-04T07:40:15.477Z</time>
      </trkpt>
      <trkpt lat="48.22057" lon="-4.22747">
        <ele>290.24151611328</ele>
        <time>2020-05-04T07:40:18.721Z</time>
      </trkpt>
      <trkpt lat="48.22052" lon="-4.2275">
        <ele>291.17736816406</ele>
        <time>2020-05-04T07:40:21.966Z</time>
      </trkpt>
      <trkpt lat="48.2205" lon="-4.22756">
        <ele>291.89724731445</ele>
        <time>2020-05-04T07:40:25.212Z</time>
      </trkpt>
      <trkpt lat="48.22062" lon="-4.22827">
        <ele>296.03839111328</ele>
        <time>2020-05-04T07:40:28.468Z</time>
      </trkpt>
      <trkpt lat="48.22062" lon="-4.22843">
        <ele>297.57412719727</ele>
        <time>2020-05-04T07:40:31.726Z</time>
      </trkpt>
      <trkpt lat="48.2206" lon="-4.22857">
        <ele>299.18185424805</ele>
        <time>2020-05-04T07:40:34.986Z</time>
      </trkpt>
      <trkpt lat="48.22039" lon="-4.22926">
        <ele>305.68957519531</ele>
        <time>2020-05-04T07:40:38.256Z</time>
      </trkpt>
      <trkpt lat="48.22037" lon="-4.22933">
        <ele>306.4094543457</ele>
        <time>2020-05-04T07:40:41.527Z</time>
      </trkpt>
      <trkpt lat="48.22035" lon="-4.22965">
        <ele>307.98971557617</ele>
        <time>2020-05-04T07:40:44.803Z</time>
      </trkpt>
      <trkpt lat="48.22052" lon="-4.2297">
        <ele>306.27401733398</ele>
        <time>2020-05-04T07:40:48.082Z</time>
      </trkpt>
      <trkpt lat="48.22035" lon="-4.22965">
        <ele>307.98971557617</ele>
        <time>2020-05-04T07:40:51.364Z</time>
      </trkpt>
      <trkpt lat="48.22034" lon="-4.22975">
        <ele>308.33767700195</ele>
        <time>2020-05-04T07:40:54.648Z</time>
      </trkpt>
      <trkpt lat="48.22035" lon="-4.23049">
        <ele>310.58938598633</ele>
        <time>2020-05-04T07:40:57.942Z</time>
      </trkpt>
      <trkpt lat="48.22031" lon="-4.23081">
        <ele>311.26126098633</ele>
        <time>2020-05-04T07:41:01.240Z</time>
      </trkpt>
      <trkpt lat="48.22023" lon="-4.23128">
        <ele>312.97256469727</ele>
        <time>2020-05-04T07:41:04.545Z</time>
      </trkpt>
      <trkpt lat="48.2202" lon="-4.23149">
        <ele>314.19635009766</ele>
        <time>2020-05-04T07:41:07.852Z</time>
      </trkpt>
      <trkpt lat="48.22007" lon="-4.23204">
        <ele>317.06546020508</ele>
        <time>2020-05-04T07:41:11.167Z</time>
      </trkpt>
      <trkpt lat="48.22002" lon="-4.23221">
        <ele>317.43737792969</ele>
        <time>2020-05-04T07:41:14.485Z</time>
      </trkpt>
      <trkpt lat="48.21997" lon="-4.23233">
        <ele>317.62936401367</ele>
        <time>2020-05-04T07:41:17.805Z</time>
      </trkpt>
      <trkpt lat="48.21995" lon="-4.23238">
        <ele>317.71334838867</ele>
        <time>2020-05-04T07:41:21.125Z</time>
      </trkpt>
      <trkpt lat="48.2199" lon="-4.23259">
        <ele>318.22924804688</ele>
        <time>2020-05-04T07:41:24.448Z</time>
      </trkpt>
      <trkpt lat="48.2199" lon="-4.23275">
        <ele>318.80517578125</ele>
        <time>2020-05-04T07:41:27.773Z</time>
      </trkpt>
      <trkpt lat="48.21995" lon="-4.23312">
        <ele>320.37689208984</ele>
        <time>2020-05-04T07:41:31.104Z</time>
      </trkpt>
      <trkpt lat="48.21996" lon="-4.23323">
        <ele>320.82083129883</ele>
        <time>2020-05-04T07:41:34.436Z</time>
      </trkpt>
      <trkpt lat="48.21999" lon="-4.23337">
        <ele>321.46871948242</ele>
        <time>2020-05-04T07:41:37.770Z</time>
      </trkpt>
      <trkpt lat="48.22" lon="-4.23349">
        <ele>321.94863891602</ele>
        <time>2020-05-04T07:41:41.106Z</time>
      </trkpt>
      <trkpt lat="48.22002" lon="-4.23374">
        <ele>322.8024597168</ele>
        <time>2020-05-04T07:41:44.445Z</time>
      </trkpt>
      <trkpt lat="48.22001" lon="-4.23397">
        <ele>323.30639648438</ele>
        <time>2020-05-04T07:41:47.787Z</time>
      </trkpt>
      <trkpt lat="48.21997" lon="-4.23397">
        <ele>323.11441040039</ele>
        <time>2020-05-04T07:41:51.130Z</time>
      </trkpt>
      <trkpt lat="48.22001" lon="-4.23397">
        <ele>323.30639648438</ele>
        <time>2020-05-04T07:41:54.474Z</time>
      </trkpt>
      <trkpt lat="48.22" lon="-4.23409">
        <ele>323.54635620117</ele>
        <time>2020-05-04T07:41:57.819Z</time>
      </trkpt>
      <trkpt lat="48.21998" lon="-4.23422">
        <ele>323.76229858398</ele>
        <time>2020-05-04T07:42:01.166Z</time>
      </trkpt>
      <trkpt lat="48.21989" lon="-4.23428">
        <ele>323.47436523438</ele>
        <time>2020-05-04T07:42:04.515Z</time>
      </trkpt>
      <trkpt lat="48.21978" lon="-4.2345">
        <ele>323.36663818359</ele>
        <time>2020-05-04T07:42:07.868Z</time>
      </trkpt>
      <trkpt lat="48.2197" lon="-4.23474">
        <ele>322.9826965332</ele>
        <time>2020-05-04T07:42:11.224Z</time>
      </trkpt>
      <trkpt lat="48.21969" lon="-4.23482">
        <ele>322.93472290039</ele>
        <time>2020-05-04T07:42:14.581Z</time>
      </trkpt>
      <trkpt lat="48.21964" lon="-4.23494">
        <ele>322.68383789062</ele>
        <time>2020-05-04T07:42:17.940Z</time>
      </trkpt>
      <trkpt lat="48.2196" lon="-4.23505">
        <ele>322.32391357422</ele>
        <time>2020-05-04T07:42:21.301Z</time>
      </trkpt>
      <trkpt lat="48.21958" lon="-4.23513">
        <ele>322.08395385742</ele>
        <time>2020-05-04T07:42:24.663Z</time>
      </trkpt>
      <trkpt lat="48.21962" lon="-4.23527">
        <ele>321.84399414062</ele>
        <time>2020-05-04T07:42:28.027Z</time>
      </trkpt>
      <trkpt lat="48.21965" lon="-4.23531">
        <ele>321.76861572266</ele>
        <time>2020-05-04T07:42:31.392Z</time>
      </trkpt>
      <trkpt lat="48.2196" lon="-4.23559">
        <ele>320.30484008789</ele>
        <time>2020-05-04T07:42:34.761Z</time>
      </trkpt>
      <trkpt lat="48.21959" lon="-4.23568">
        <ele>319.8489074707</ele>
        <time>2020-05-04T07:42:38.131Z</time>
      </trkpt>
      <trkpt lat="48.21957" lon="-4.23611">
        <ele>317.73727416992</ele>
        <time>2020-05-04T07:42:41.507Z</time>
      </trkpt>
      <trkpt lat="48.21951" lon="-4.23633">
        <ele>316.53747558594</ele>
        <time>2020-05-04T07:42:44.886Z</time>
      </trkpt>
      <trkpt lat="48.21945" lon="-4.2366">
        <ele>315.09771728516</ele>
        <time>2020-05-04T07:42:48.269Z</time>
      </trkpt>
      <trkpt lat="48.21934" lon="-4.23716">
        <ele>311.64587402344</ele>
        <time>2020-05-04T07:42:51.660Z</time>
      </trkpt>
      <trkpt lat="48.21926" lon="-4.23743">
        <ele>310.12142944336</ele>
        <time>2020-05-04T07:42:55.055Z</time>
      </trkpt>
      <trkpt lat="48.21921" lon="-4.23766">
        <ele>308.68167114258</ele>
        <time>2020-05-04T07:42:58.453Z</time>
      </trkpt>
      <trkpt lat="48.21905" lon="-4.23794">
        <ele>306.62881469727</ele>
        <time>2020-05-04T07:43:01.856Z</time>
      </trkpt>
      <trkpt lat="48.21898" lon="-4.23806">
        <ele>305.68096923828</ele>
        <time>2020-05-04T07:43:05.261Z</time>
      </trkpt>
      <trkpt lat="48.2189" lon="-4.23818">
        <ele>304.72113037109</ele>
        <time>2020-05-04T07:43:08.668Z</time>
      </trkpt>
      <trkpt lat="48.21878" lon="-4.23834">
        <ele>303.42532348633</ele>
        <time>2020-05-04T07:43:12.078Z</time>
      </trkpt>
      <trkpt lat="48.21853" lon="-4.23869">
        <ele>300.60580444336</ele>
        <time>2020-05-04T07:43:15.495Z</time>
      </trkpt>
      <trkpt lat="48.21824" lon="-4.23893">
        <ele>298.27410888672</ele>
        <time>2020-05-04T07:43:18.919Z</time>
      </trkpt>
      <trkpt lat="48.21797" lon="-4.23923">
        <ele>295.46658325195</ele>
        <time>2020-05-04T07:43:22.350Z</time>
      </trkpt>
      <trkpt lat="48.21783" lon="-4.23933">
        <ele>294.41076660156</ele>
        <time>2020-05-04T07:43:25.784Z</time>
      </trkpt>
      <trkpt lat="48.21763" lon="-4.23947">
        <ele>292.88928222656</ele>
        <time>2020-05-04T07:43:29.222Z</time>
      </trkpt>
      <trkpt lat="48.21759" lon="-4.2396">
        <ele>291.65322875977</ele>
        <time>2020-05-04T07:43:32.662Z</time>
      </trkpt>
      <trkpt lat="48.21736" lon="-4.23977">
        <ele>290.29745483398</ele>
        <time>2020-05-04T07:43:36.107Z</time>
      </trkpt>
      <trkpt lat="48.21692" lon="-4.23992">
        <ele>289.10260009766</ele>
        <time>2020-05-04T07:43:39.561Z</time>
      </trkpt>
      <trkpt lat="48.2167" lon="-4.24005">
        <ele>287.90707397461</ele>
        <time>2020-05-04T07:43:43.020Z</time>
      </trkpt>
      <trkpt lat="48.21643" lon="-4.24031">
        <ele>285.52294921875</ele>
        <time>2020-05-04T07:43:46.485Z</time>
      </trkpt>
      <trkpt lat="48.21632" lon="-4.2405">
        <ele>284.93502807617</ele>
        <time>2020-05-04T07:43:49.954Z</time>
      </trkpt>
      <trkpt lat="48.21631" lon="-4.24053">
        <ele>284.85104370117</ele>
        <time>2020-05-04T07:43:53.423Z</time>
      </trkpt>
      <trkpt lat="48.21632" lon="-4.2405">
        <ele>284.93502807617</ele>
        <time>2020-05-04T07:43:56.893Z</time>
      </trkpt>
      <trkpt lat="48.21643" lon="-4.24031">
        <ele>285.52294921875</ele>
        <time>2020-05-04T07:44:00.366Z</time>
      </trkpt>
      <trkpt lat="48.21568" lon="-4.24104">
        <ele>282.21633911133</ele>
        <time>2020-05-04T07:44:03.857Z</time>
      </trkpt>
      <trkpt lat="48.21536" lon="-4.24143">
        <ele>279.76022338867</ele>
        <time>2020-05-04T07:44:07.356Z</time>
      </trkpt>
      <trkpt lat="48.21529" lon="-4.24154">
        <ele>279.11233520508</ele>
        <time>2020-05-04T07:44:10.857Z</time>
      </trkpt>
      <trkpt lat="48.21507" lon="-4.24189">
        <ele>277.06066894531</ele>
        <time>2020-05-04T07:44:14.365Z</time>
      </trkpt>
      <trkpt lat="48.21488" lon="-4.24209">
        <ele>276.13790893555</ele>
        <time>2020-05-04T07:44:17.877Z</time>
      </trkpt>
      <trkpt lat="48.21465" lon="-4.24227">
        <ele>275.31005859375</ele>
        <time>2020-05-04T07:44:21.394Z</time>
      </trkpt>
      <trkpt lat="48.21433" lon="-4.24258">
        <ele>274.15826416016</ele>
        <time>2020-05-04T07:44:24.919Z</time>
      </trkpt>
      <trkpt lat="48.21433" lon="-4.24269">
        <ele>274.15826416016</ele>
        <time>2020-05-04T07:44:28.445Z</time>
      </trkpt>
      <trkpt lat="48.21432" lon="-4.24282">
        <ele>274.03619384766</ele>
        <time>2020-05-04T07:44:31.973Z</time>
      </trkpt>
      <trkpt lat="48.21434" lon="-4.24284">
        <ele>274.06018066406</ele>
        <time>2020-05-04T07:44:35.502Z</time>
      </trkpt>
      <trkpt lat="48.21432" lon="-4.24282">
        <ele>274.03619384766</ele>
        <time>2020-05-04T07:44:39.031Z</time>
      </trkpt>
      <trkpt lat="48.21433" lon="-4.24269">
        <ele>274.15826416016</ele>
        <time>2020-05-04T07:44:42.562Z</time>
      </trkpt>
      <trkpt lat="48.21433" lon="-4.24258">
        <ele>274.15826416016</ele>
        <time>2020-05-04T07:44:46.094Z</time>
      </trkpt>
      <trkpt lat="48.21431" lon="-4.24245">
        <ele>274.08627319336</ele>
        <time>2020-05-04T07:44:49.628Z</time>
      </trkpt>
      <trkpt lat="48.21428" lon="-4.24235">
        <ele>273.98553466797</ele>
        <time>2020-05-04T07:44:53.164Z</time>
      </trkpt>
      <trkpt lat="48.21425" lon="-4.24229">
        <ele>273.91354370117</ele>
        <time>2020-05-04T07:44:56.701Z</time>
      </trkpt>
      <trkpt lat="48.21395" lon="-4.2421">
        <ele>272.50112915039</ele>
        <time>2020-05-04T07:45:00.244Z</time>
      </trkpt>
      <trkpt lat="48.21386" lon="-4.24199">
        <ele>271.56530761719</ele>
        <time>2020-05-04T07:45:03.790Z</time>
      </trkpt>
      <trkpt lat="48.21378" lon="-4.24186">
        <ele>271.07992553711</ele>
        <time>2020-05-04T07:45:07.338Z</time>
      </trkpt>
      <trkpt lat="48.21375" lon="-4.24181">
        <ele>270.95993041992</ele>
        <time>2020-05-04T07:45:10.887Z</time>
      </trkpt>
      <trkpt lat="48.21363" lon="-4.24149">
        <ele>269.93069458008</ele>
        <time>2020-05-04T07:45:14.441Z</time>
      </trkpt>
      <trkpt lat="48.21357" lon="-4.24137">
        <ele>269.28280639648</ele>
        <time>2020-05-04T07:45:17.997Z</time>
      </trkpt>
      <trkpt lat="48.21338" lon="-4.24151">
        <ele>267.50680541992</ele>
        <time>2020-05-04T07:45:21.557Z</time>
      </trkpt>
      <trkpt lat="48.21303" lon="-4.24176">
        <ele>263.18753051758</ele>
        <time>2020-05-04T07:45:25.125Z</time>
      </trkpt>
      <trkpt lat="48.21276" lon="-4.24194">
        <ele>259.84008789062</ele>
        <time>2020-05-04T07:45:28.699Z</time>
      </trkpt>
      <trkpt lat="48.21258" lon="-4.24202">
        <ele>257.95965576172</ele>
        <time>2020-05-04T07:45:32.276Z</time>
      </trkpt>
      <trkpt lat="48.21081" lon="-4.2426">
        <ele>239.39082336426</ele>
        <time>2020-05-04T07:45:35.890Z</time>
      </trkpt>
      <trkpt lat="48.21023" lon="-4.24293">
        <ele>235.31011962891</ele>
        <time>2020-05-04T07:45:39.516Z</time>
      </trkpt>
      <trkpt lat="48.21021" lon="-4.2429">
        <ele>234.86619567871</ele>
        <time>2020-05-04T07:45:43.143Z</time>
      </trkpt>
      <trkpt lat="48.21023" lon="-4.24293">
        <ele>235.31011962891</ele>
        <time>2020-05-04T07:45:46.770Z</time>
      </trkpt>
      <trkpt lat="48.20928" lon="-4.24398">
        <ele>228.96257019043</ele>
        <time>2020-05-04T07:45:50.421Z</time>
      </trkpt>
      <trkpt lat="48.20855" lon="-4.24478">
        <ele>224.48304748535</ele>
        <time>2020-05-04T07:45:54.090Z</time>
      </trkpt>
      <trkpt lat="48.20798" lon="-4.24541">
        <ele>221.18182373047</ele>
        <time>2020-05-04T07:45:57.773Z</time>
      </trkpt>
      <trkpt lat="48.2072" lon="-4.24628">
        <ele>215.54791259766</ele>
        <time>2020-05-04T07:46:01.476Z</time>
      </trkpt>
      <trkpt lat="48.20689" lon="-4.24662">
        <ele>213.79620361328</ele>
        <time>2020-05-04T07:46:05.186Z</time>
      </trkpt>
      <trkpt lat="48.20673" lon="-4.24675">
        <ele>212.92556762695</ele>
        <time>2020-05-04T07:46:08.900Z</time>
      </trkpt>
      <trkpt lat="48.20649" lon="-4.24693">
        <ele>212.13369750977</ele>
        <time>2020-05-04T07:46:12.619Z</time>
      </trkpt>
      <trkpt lat="48.20646" lon="-4.24695">
        <ele>212.02572631836</ele>
        <time>2020-05-04T07:46:16.339Z</time>
      </trkpt>
      <trkpt lat="48.20643" lon="-4.24698">
        <ele>211.95373535156</ele>
        <time>2020-05-04T07:46:20.060Z</time>
      </trkpt>
      <trkpt lat="48.20648" lon="-4.24735">
        <ele>213.58546447754</ele>
        <time>2020-05-04T07:46:23.786Z</time>
      </trkpt>
      <trkpt lat="48.20654" lon="-4.24803">
        <ele>216.3929901123</ele>
        <time>2020-05-04T07:46:27.521Z</time>
      </trkpt>
      <trkpt lat="48.2066" lon="-4.24823">
        <ele>218.38903808594</ele>
        <time>2020-05-04T07:46:31.259Z</time>
      </trkpt>
      <trkpt lat="48.20664" lon="-4.24838">
        <ele>219.85278320312</ele>
        <time>2020-05-04T07:46:34.999Z</time>
      </trkpt>
      <trkpt lat="48.20703" lon="-4.24886">
        <ele>225.0033416748</ele>
        <time>2020-05-04T07:46:38.749Z</time>
      </trkpt>
      <trkpt lat="48.2076" lon="-4.24938">
        <ele>228.60562133789</ele>
        <time>2020-05-04T07:46:42.512Z</time>
      </trkpt>
      <trkpt lat="48.20768" lon="-4.24944">
        <ele>229.0318145752</ele>
        <time>2020-05-04T07:46:46.277Z</time>
      </trkpt>
      <trkpt lat="48.208" lon="-4.24985">
        <ele>231.34115600586</ele>
        <time>2020-05-04T07:46:50.051Z</time>
      </trkpt>
      <trkpt lat="48.20812" lon="-4.25003">
        <ele>232.06024169922</ele>
        <time>2020-05-04T07:46:53.828Z</time>
      </trkpt>
      <trkpt lat="48.20832" lon="-4.25033">
        <ele>233.23344421387</ele>
        <time>2020-05-04T07:46:57.611Z</time>
      </trkpt>
      <trkpt lat="48.20858" lon="-4.25055">
        <ele>235.16883850098</ele>
        <time>2020-05-04T07:47:01.400Z</time>
      </trkpt>
      <trkpt lat="48.20868" lon="-4.25064">
        <ele>236.18865966797</ele>
        <time>2020-05-04T07:47:05.191Z</time>
      </trkpt>
      <trkpt lat="48.20893" lon="-4.25069">
        <ele>237.58351135254</ele>
        <time>2020-05-04T07:47:08.987Z</time>
      </trkpt>
      <trkpt lat="48.20912" lon="-4.25072">
        <ele>238.14741516113</ele>
        <time>2020-05-04T07:47:12.787Z</time>
      </trkpt>
      <trkpt lat="48.20973" lon="-4.25055">
        <ele>240.60029602051</ele>
        <time>2020-05-04T07:47:16.599Z</time>
      </trkpt>
      <trkpt lat="48.21016" lon="-4.25049">
        <ele>242.39668273926</ele>
        <time>2020-05-04T07:47:20.420Z</time>
      </trkpt>
      <trkpt lat="48.21038" lon="-4.25041">
        <ele>244.50833129883</ele>
        <time>2020-05-04T07:47:24.246Z</time>
      </trkpt>
      <trkpt lat="48.21042" lon="-4.25036">
        <ele>244.89225769043</ele>
        <time>2020-05-04T07:47:28.073Z</time>
      </trkpt>
      <trkpt lat="48.21067" lon="-4.25009">
        <ele>248.49816894531</ele>
        <time>2020-05-04T07:47:31.906Z</time>
      </trkpt>
      <trkpt lat="48.2107" lon="-4.25004">
        <ele>249.0860748291</ele>
        <time>2020-05-04T07:47:35.740Z</time>
      </trkpt>
      <trkpt lat="48.21106" lon="-4.24943">
        <ele>256.14086914062</ele>
        <time>2020-05-04T07:47:39.585Z</time>
      </trkpt>
      <trkpt lat="48.21138" lon="-4.24886">
        <ele>264.33782958984</ele>
        <time>2020-05-04T07:47:43.440Z</time>
      </trkpt>
      <trkpt lat="48.2114" lon="-4.24869">
        <ele>265.28567504883</ele>
        <time>2020-05-04T07:47:47.297Z</time>
      </trkpt>
      <trkpt lat="48.21143" lon="-4.24862">
        <ele>266.07632446289</ele>
        <time>2020-05-04T07:47:51.155Z</time>
      </trkpt>
      <trkpt lat="48.21147" lon="-4.24858">
        <ele>267.22811889648</ele>
        <time>2020-05-04T07:47:55.014Z</time>
      </trkpt>
      <trkpt lat="48.2115" lon="-4.2486">
        <ele>267.49209594727</ele>
        <time>2020-05-04T07:47:58.874Z</time>
      </trkpt>
      <trkpt lat="48.21153" lon="-4.24855">
        <ele>268.59588623047</ele>
        <time>2020-05-04T07:48:02.734Z</time>
      </trkpt>
      <trkpt lat="48.21175" lon="-4.24805">
        <ele>278.29028320312</ele>
        <time>2020-05-04T07:48:06.602Z</time>
      </trkpt>
      <trkpt lat="48.21179" lon="-4.24801">
        <ele>279.42105102539</ele>
        <time>2020-05-04T07:48:10.471Z</time>
      </trkpt>
      <trkpt lat="48.21183" lon="-4.24801">
        <ele>279.90097045898</ele>
        <time>2020-05-04T07:48:14.341Z</time>
      </trkpt>
      <trkpt lat="48.21188" lon="-4.24784">
        <ele>282.54052734375</ele>
        <time>2020-05-04T07:48:18.214Z</time>
      </trkpt>
      <trkpt lat="48.21208" lon="-4.24756">
        <ele>285.80877685547</ele>
        <time>2020-05-04T07:48:22.092Z</time>
      </trkpt>
      <trkpt lat="48.21223" lon="-4.24748">
        <ele>287.70443725586</ele>
        <time>2020-05-04T07:48:25.973Z</time>
      </trkpt>
      <trkpt lat="48.2123" lon="-4.24751">
        <ele>288.50833129883</ele>
        <time>2020-05-04T07:48:29.856Z</time>
      </trkpt>
      <trkpt lat="48.21226" lon="-4.24743">
        <ele>288.12438964844</ele>
        <time>2020-05-04T07:48:33.740Z</time>
      </trkpt>
      <trkpt lat="48.21225" lon="-4.24742">
        <ele>288.01638793945</ele>
        <time>2020-05-04T07:48:37.624Z</time>
      </trkpt>
      <trkpt lat="48.21226" lon="-4.24743">
        <ele>288.12438964844</ele>
        <time>2020-05-04T07:48:41.509Z</time>
      </trkpt>
      <trkpt lat="48.2123" lon="-4.24751">
        <ele>288.50833129883</ele>
        <time>2020-05-04T07:48:45.395Z</time>
      </trkpt>
      <trkpt lat="48.21233" lon="-4.24751">
        <ele>288.86825561523</ele>
        <time>2020-05-04T07:48:49.282Z</time>
      </trkpt>
      <trkpt lat="48.21244" lon="-4.24754">
        <ele>290.15203857422</ele>
        <time>2020-05-04T07:48:53.171Z</time>
      </trkpt>
      <trkpt lat="48.2126" lon="-4.24748">
        <ele>292.14370727539</ele>
        <time>2020-05-04T07:48:57.063Z</time>
      </trkpt>
      <trkpt lat="48.21269" lon="-4.2474">
        <ele>292.38363647461</ele>
        <time>2020-05-04T07:49:00.957Z</time>
      </trkpt>
      <trkpt lat="48.21286" lon="-4.2472">
        <ele>292.4196472168</ele>
        <time>2020-05-04T07:49:04.856Z</time>
      </trkpt>
      <trkpt lat="48.21306" lon="-4.24697">
        <ele>292.45562744141</ele>
        <time>2020-05-04T07:49:08.760Z</time>
      </trkpt>
      <trkpt lat="48.2132" lon="-4.24689">
        <ele>292.22241210938</ele>
        <time>2020-05-04T07:49:12.667Z</time>
      </trkpt>
      <trkpt lat="48.21331" lon="-4.24678">
        <ele>291.95843505859</ele>
        <time>2020-05-04T07:49:16.576Z</time>
      </trkpt>
      <trkpt lat="48.2135" lon="-4.24652">
        <ele>291.13394165039</ele>
        <time>2020-05-04T07:49:20.490Z</time>
      </trkpt>
      <trkpt lat="48.21352" lon="-4.2465">
        <ele>290.96597290039</ele>
        <time>2020-05-04T07:49:24.405Z</time>
      </trkpt>
      <trkpt lat="48.21361" lon="-4.2463">
        <ele>290.078125</ele>
        <time>2020-05-04T07:49:28.323Z</time>
      </trkpt>
      <trkpt lat="48.21366" lon="-4.24614">
        <ele>289.52621459961</ele>
        <time>2020-05-04T07:49:32.243Z</time>
      </trkpt>
      <trkpt lat="48.21375" lon="-4.24557">
        <ele>287.53009033203</ele>
        <time>2020-05-04T07:49:36.171Z</time>
      </trkpt>
      <trkpt lat="48.21391" lon="-4.24539">
        <ele>285.94635009766</ele>
        <time>2020-05-04T07:49:40.103Z</time>
      </trkpt>
      <trkpt lat="48.21402" lon="-4.24506">
        <ele>283.81008911133</ele>
        <time>2020-05-04T07:49:44.040Z</time>
      </trkpt>
      <trkpt lat="48.21414" lon="-4.24467">
        <ele>281.07455444336</ele>
        <time>2020-05-04T07:49:47.983Z</time>
      </trkpt>
      <trkpt lat="48.21419" lon="-4.24454">
        <ele>280.02923583984</ele>
        <time>2020-05-04T07:49:51.928Z</time>
      </trkpt>
      <trkpt lat="48.21423" lon="-4.24452">
        <ele>279.70678710938</ele>
        <time>2020-05-04T07:49:55.874Z</time>
      </trkpt>
      <trkpt lat="48.2146" lon="-4.2438">
        <ele>274.71789550781</ele>
        <time>2020-05-04T07:49:59.832Z</time>
      </trkpt>
      <trkpt lat="48.21463" lon="-4.24374">
        <ele>274.32196044922</ele>
        <time>2020-05-04T07:50:03.791Z</time>
      </trkpt>
      <trkpt lat="48.21494" lon="-4.24314">
        <ele>273.80584716797</ele>
        <time>2020-05-04T07:50:07.760Z</time>
      </trkpt>
      <trkpt lat="48.21496" lon="-4.24309">
        <ele>273.85385131836</ele>
        <time>2020-05-04T07:50:11.730Z</time>
      </trkpt>
      <trkpt lat="48.21502" lon="-4.24309">
        <ele>273.63787841797</ele>
        <time>2020-05-04T07:50:15.701Z</time>
      </trkpt>
      <trkpt lat="48.21509" lon="-4.24309">
        <ele>273.38592529297</ele>
        <time>2020-05-04T07:50:19.674Z</time>
      </trkpt>
      <trkpt lat="48.21539" lon="-4.24295">
        <ele>273.29113769531</ele>
        <time>2020-05-04T07:50:23.653Z</time>
      </trkpt>
      <trkpt lat="48.21561" lon="-4.24281">
        <ele>273.36312866211</ele>
        <time>2020-05-04T07:50:27.637Z</time>
      </trkpt>
      <trkpt lat="48.21576" lon="-4.24269">
        <ele>273.95022583008</ele>
        <time>2020-05-04T07:50:31.624Z</time>
      </trkpt>
      <trkpt lat="48.21605" lon="-4.24247">
        <ele>274.4875793457</ele>
        <time>2020-05-04T07:50:35.618Z</time>
      </trkpt>
      <trkpt lat="48.21618" lon="-4.2424">
        <ele>273.8996887207</ele>
        <time>2020-05-04T07:50:39.614Z</time>
      </trkpt>
      <trkpt lat="48.21639" lon="-4.24234">
        <ele>272.56790161133</ele>
        <time>2020-05-04T07:50:43.615Z</time>
      </trkpt>
      <trkpt lat="48.21652" lon="-4.2423">
        <ele>271.20837402344</ele>
        <time>2020-05-04T07:50:47.618Z</time>
      </trkpt>
      <trkpt lat="48.21674" lon="-4.24237">
        <ele>266.76913452148</ele>
        <time>2020-05-04T07:50:51.626Z</time>
      </trkpt>
      <trkpt lat="48.21699" lon="-4.24231">
        <ele>263.97784423828</ele>
        <time>2020-05-04T07:50:55.639Z</time>
      </trkpt>
      <trkpt lat="48.21709" lon="-4.24224">
        <ele>263.54592895508</ele>
        <time>2020-05-04T07:50:59.654Z</time>
      </trkpt>
      <trkpt lat="48.21727" lon="-4.2422">
        <ele>261.53024291992</ele>
        <time>2020-05-04T07:51:03.673Z</time>
      </trkpt>
      <trkpt lat="48.21744" lon="-4.24211">
        <ele>260.37844848633</ele>
        <time>2020-05-04T07:51:07.695Z</time>
      </trkpt>
      <trkpt lat="48.21758" lon="-4.24203">
        <ele>259.47415161133</ele>
        <time>2020-05-04T07:51:11.720Z</time>
      </trkpt>
      <trkpt lat="48.21779" lon="-4.24196">
        <ele>258.51486206055</ele>
        <time>2020-05-04T07:51:15.750Z</time>
      </trkpt>
      <trkpt lat="48.21805" lon="-4.24178">
        <ele>258.92715454102</ele>
        <time>2020-05-04T07:51:19.785Z</time>
      </trkpt>
      <trkpt lat="48.21807" lon="-4.24178">
        <ele>258.75918579102</ele>
        <time>2020-05-04T07:51:23.821Z</time>
      </trkpt>
      <trkpt lat="48.21822" lon="-4.24175">
        <ele>257.93133544922</ele>
        <time>2020-05-04T07:51:27.860Z</time>
      </trkpt>
      <trkpt lat="48.21859" lon="-4.2415">
        <ele>258.58712768555</ele>
        <time>2020-05-04T07:51:31.907Z</time>
      </trkpt>
      <trkpt lat="48.21868" lon="-4.24149">
        <ele>258.08322143555</ele>
        <time>2020-05-04T07:51:35.956Z</time>
      </trkpt>
      <trkpt lat="48.21871" lon="-4.24148">
        <ele>258.01123046875</ele>
        <time>2020-05-04T07:51:40.005Z</time>
      </trkpt>
      <trkpt lat="48.21899" lon="-4.24151">
        <ele>255.88845825195</ele>
        <time>2020-05-04T07:51:44.060Z</time>
      </trkpt>
      <trkpt lat="48.2191" lon="-4.2415">
        <ele>255.60050964355</ele>
        <time>2020-05-04T07:51:48.117Z</time>
      </trkpt>
      <trkpt lat="48.21936" lon="-4.24142">
        <ele>255.26528930664</ele>
        <time>2020-05-04T07:51:52.179Z</time>
      </trkpt>
      <trkpt lat="48.2196" lon="-4.24128">
        <ele>255.04931640625</ele>
        <time>2020-05-04T07:51:56.247Z</time>
      </trkpt>
      <trkpt lat="48.21981" lon="-4.24119">
        <ele>254.50941467285</ele>
        <time>2020-05-04T07:52:00.319Z</time>
      </trkpt>
      <trkpt lat="48.21983" lon="-4.24118">
        <ele>254.47341918945</ele>
        <time>2020-05-04T07:52:04.391Z</time>
      </trkpt>
      <trkpt lat="48.21995" lon="-4.24111">
        <ele>254.39637756348</ele>
        <time>2020-05-04T07:52:08.466Z</time>
      </trkpt>
      <trkpt lat="48.22014" lon="-4.24102">
        <ele>254.05126953125</ele>
        <time>2020-05-04T07:52:12.545Z</time>
      </trkpt>
      <trkpt lat="48.22037" lon="-4.24086">
        <ele>252.57551574707</ele>
        <time>2020-05-04T07:52:16.629Z</time>
      </trkpt>
      <trkpt lat="48.22096" lon="-4.24034">
        <ele>250.41055297852</ele>
        <time>2020-05-04T07:52:20.727Z</time>
      </trkpt>
      <trkpt lat="48.22105" lon="-4.24029">
        <ele>249.37872314453</ele>
        <time>2020-05-04T07:52:24.827Z</time>
      </trkpt>
      <trkpt lat="48.22116" lon="-4.24026">
        <ele>247.71308898926</ele>
        <time>2020-05-04T07:52:28.929Z</time>
      </trkpt>
      <trkpt lat="48.22132" lon="-4.24021">
        <ele>245.32548522949</ele>
        <time>2020-05-04T07:52:33.034Z</time>
      </trkpt>
      <trkpt lat="48.2214" lon="-4.24018">
        <ele>244.16168212891</ele>
        <time>2020-05-04T07:52:37.141Z</time>
      </trkpt>
      <trkpt lat="48.22163" lon="-4.24015">
        <ele>240.47830200195</ele>
        <time>2020-05-04T07:52:41.252Z</time>
      </trkpt>
      <trkpt lat="48.22188" lon="-4.24016">
        <ele>236.66397094727</ele>
        <time>2020-05-04T07:52:45.368Z</time>
      </trkpt>
      <trkpt lat="48.22209" lon="-4.24024">
        <ele>234.27227783203</ele>
        <time>2020-05-04T07:52:49.489Z</time>
      </trkpt>
      <trkpt lat="48.22214" lon="-4.24028">
        <ele>233.64839172363</ele>
        <time>2020-05-04T07:52:53.611Z</time>
      </trkpt>
      <trkpt lat="48.22222" lon="-4.24033">
        <ele>232.74923706055</ele>
        <time>2020-05-04T07:52:57.735Z</time>
      </trkpt>
      <trkpt lat="48.22236" lon="-4.24038">
        <ele>231.28547668457</ele>
        <time>2020-05-04T07:53:01.861Z</time>
      </trkpt>
      <trkpt lat="48.22301" lon="-4.24046">
        <ele>226.66491699219</ele>
        <time>2020-05-04T07:53:06.001Z</time>
      </trkpt>
      <trkpt lat="48.22393" lon="-4.24057">
        <ele>218.86251831055</ele>
        <time>2020-05-04T07:53:10.159Z</time>
      </trkpt>
      <trkpt lat="48.22404" lon="-4.24061">
        <ele>218.02449035645</ele>
        <time>2020-05-04T07:53:14.319Z</time>
      </trkpt>
      <trkpt lat="48.2241" lon="-4.24063">
        <ele>217.76052856445</ele>
        <time>2020-05-04T07:53:18.481Z</time>
      </trkpt>
      <trkpt lat="48.22428" lon="-4.24075">
        <ele>217.25660705566</ele>
        <time>2020-05-04T07:53:22.646Z</time>
      </trkpt>
      <trkpt lat="48.22449" lon="-4.24095">
        <ele>216.67866516113</ele>
        <time>2020-05-04T07:53:26.816Z</time>
      </trkpt>
      <trkpt lat="48.22463" lon="-4.24099">
        <ele>215.64683532715</ele>
        <time>2020-05-04T07:53:30.989Z</time>
      </trkpt>
      <trkpt lat="48.22471" lon="-4.24097">
        <ele>214.90295410156</ele>
        <time>2020-05-04T07:53:35.164Z</time>
      </trkpt>
      <trkpt lat="48.22477" lon="-4.24093">
        <ele>214.25506591797</ele>
        <time>2020-05-04T07:53:39.340Z</time>
      </trkpt>
      <trkpt lat="48.22474" lon="-4.24099">
        <ele>214.72299194336</ele>
        <time>2020-05-04T07:53:43.517Z</time>
      </trkpt>
      <trkpt lat="48.22468" lon="-4.24116">
        <ele>215.74975585938</ele>
        <time>2020-05-04T07:53:47.697Z</time>
      </trkpt>
      <trkpt lat="48.22467" lon="-4.24119">
        <ele>215.86973571777</ele>
        <time>2020-05-04T07:53:51.877Z</time>
      </trkpt>
      <trkpt lat="48.22462" lon="-4.24179">
        <ele>217.20863342285</ele>
        <time>2020-05-04T07:53:56.065Z</time>
      </trkpt>
      <trkpt lat="48.22453" lon="-4.24218">
        <ele>218.79237365723</ele>
        <time>2020-05-04T07:54:00.259Z</time>
      </trkpt>
      <trkpt lat="48.22441" lon="-4.24243">
        <ele>220.25611877441</ele>
        <time>2020-05-04T07:54:04.457Z</time>
      </trkpt>
      <trkpt lat="48.22426" lon="-4.24277">
        <ele>222.01887512207</ele>
        <time>2020-05-04T07:54:08.660Z</time>
      </trkpt>
      <trkpt lat="48.22398" lon="-4.24321">
        <ele>222.36917114258</ele>
        <time>2020-05-04T07:54:12.872Z</time>
      </trkpt>
      <trkpt lat="48.22376" lon="-4.24375">
        <ele>222.48112487793</ele>
        <time>2020-05-04T07:54:17.092Z</time>
      </trkpt>
      <trkpt lat="48.22372" lon="-4.2438">
        <ele>222.46913146973</ele>
        <time>2020-05-04T07:54:21.313Z</time>
      </trkpt>
      <trkpt lat="48.22345" lon="-4.24411">
        <ele>222.4109954834</ele>
        <time>2020-05-04T07:54:25.541Z</time>
      </trkpt>
      <trkpt lat="48.22304" lon="-4.24463">
        <ele>220.67169189453</ele>
        <time>2020-05-04T07:54:29.780Z</time>
      </trkpt>
      <trkpt lat="48.22297" lon="-4.2447">
        <ele>220.25175476074</ele>
        <time>2020-05-04T07:54:34.020Z</time>
      </trkpt>
      <trkpt lat="48.22298" lon="-4.2448">
        <ele>219.78384399414</ele>
        <time>2020-05-04T07:54:38.262Z</time>
      </trkpt>
      <trkpt lat="48.22299" lon="-4.24482">
        <ele>219.69985961914</ele>
        <time>2020-05-04T07:54:42.504Z</time>
      </trkpt>
      <trkpt lat="48.22298" lon="-4.2448">
        <ele>219.78384399414</ele>
        <time>2020-05-04T07:54:46.746Z</time>
      </trkpt>
      <trkpt lat="48.22297" lon="-4.2447">
        <ele>220.25175476074</ele>
        <time>2020-05-04T07:54:50.990Z</time>
      </trkpt>
      <trkpt lat="48.22287" lon="-4.24477">
        <ele>219.79583740234</ele>
        <time>2020-05-04T07:54:55.236Z</time>
      </trkpt>
      <trkpt lat="48.22275" lon="-4.24489">
        <ele>219.07595825195</ele>
        <time>2020-05-04T07:54:59.485Z</time>
      </trkpt>
      <trkpt lat="48.2225" lon="-4.245">
        <ele>217.52368164062</ele>
        <time>2020-05-04T07:55:03.739Z</time>
      </trkpt>
      <trkpt lat="48.22228" lon="-4.24513">
        <ele>215.31605529785</ele>
        <time>2020-05-04T07:55:07.998Z</time>
      </trkpt>
      <trkpt lat="48.22227" lon="-4.24513">
        <ele>215.24406433105</ele>
        <time>2020-05-04T07:55:12.257Z</time>
      </trkpt>
      <trkpt lat="48.22168" lon="-4.24543">
        <ele>209.47911071777</ele>
        <time>2020-05-04T07:55:16.528Z</time>
      </trkpt>
      <trkpt lat="48.22154" lon="-4.24548">
        <ele>208.30921936035</ele>
        <time>2020-05-04T07:55:20.802Z</time>
      </trkpt>
      <trkpt lat="48.22153" lon="-4.2455">
        <ele>208.14125061035</ele>
        <time>2020-05-04T07:55:25.077Z</time>
      </trkpt>
      <trkpt lat="48.22144" lon="-4.2456">
        <ele>207.01342773438</ele>
        <time>2020-05-04T07:55:29.354Z</time>
      </trkpt>
      <trkpt lat="48.22131" lon="-4.24573">
        <ele>205.4536895752</ele>
        <time>2020-05-04T07:55:33.634Z</time>
      </trkpt>
      <trkpt lat="48.22121" lon="-4.24588">
        <ele>203.98402404785</ele>
        <time>2020-05-04T07:55:37.917Z</time>
      </trkpt>
      <trkpt lat="48.22092" lon="-4.24623">
        <ele>200.19438171387</ele>
        <time>2020-05-04T07:55:42.207Z</time>
      </trkpt>
      <trkpt lat="48.22091" lon="-4.24624">
        <ele>200.11039733887</ele>
        <time>2020-05-04T07:55:46.498Z</time>
      </trkpt>
      <trkpt lat="48.22042" lon="-4.24655">
        <ele>197.29086303711</ele>
        <time>2020-05-04T07:55:50.799Z</time>
      </trkpt>
      <trkpt lat="48.22027" lon="-4.24665">
        <ele>196.39100646973</ele>
        <time>2020-05-04T07:55:55.103Z</time>
      </trkpt>
      <trkpt lat="48.22026" lon="-4.24667">
        <ele>196.23503112793</ele>
        <time>2020-05-04T07:55:59.408Z</time>
      </trkpt>
      <trkpt lat="48.22021" lon="-4.24674">
        <ele>195.67112731934</ele>
        <time>2020-05-04T07:56:03.714Z</time>
      </trkpt>
      <trkpt lat="48.2202" lon="-4.24711">
        <ele>192.44557189941</ele>
        <time>2020-05-04T07:56:08.025Z</time>
      </trkpt>
      <trkpt lat="48.22026" lon="-4.24727">
        <ele>190.78985595703</ele>
        <time>2020-05-04T07:56:12.339Z</time>
      </trkpt>
      <trkpt lat="48.22038" lon="-4.24757">
        <ele>187.78793334961</ele>
        <time>2020-05-04T07:56:16.657Z</time>
      </trkpt>
      <trkpt lat="48.22038" lon="-4.24767">
        <ele>186.94807434082</ele>
        <time>2020-05-04T07:56:20.977Z</time>
      </trkpt>
      <trkpt lat="48.22032" lon="-4.2478">
        <ele>185.66268920898</ele>
        <time>2020-05-04T07:56:25.299Z</time>
      </trkpt>
      <trkpt lat="48.22027" lon="-4.24787">
        <ele>185.06278991699</ele>
        <time>2020-05-04T07:56:29.622Z</time>
      </trkpt>
      <trkpt lat="48.22019" lon="-4.248">
        <ele>183.99496459961</ele>
        <time>2020-05-04T07:56:33.947Z</time>
      </trkpt>
      <trkpt lat="48.2202" lon="-4.24814">
        <ele>183.19110107422</ele>
        <time>2020-05-04T07:56:38.274Z</time>
      </trkpt>
      <trkpt lat="48.22023" lon="-4.24849">
        <ele>181.19943237305</ele>
        <time>2020-05-04T07:56:42.606Z</time>
      </trkpt>
      <trkpt lat="48.22023" lon="-4.24858">
        <ele>180.50228881836</ele>
        <time>2020-05-04T07:56:46.939Z</time>
      </trkpt>
      <trkpt lat="48.22035" lon="-4.24963">
        <ele>174.24139404297</ele>
        <time>2020-05-04T07:56:51.286Z</time>
      </trkpt>
      <trkpt lat="48.22061" lon="-4.25149">
        <ele>163.9826965332</ele>
        <time>2020-05-04T07:56:55.659Z</time>
      </trkpt>
      <trkpt lat="48.22082" lon="-4.25295">
        <ele>155.62677001953</ele>
        <time>2020-05-04T07:57:00.052Z</time>
      </trkpt>
      <trkpt lat="48.22093" lon="-4.25399">
        <ele>152.51470947266</ele>
        <time>2020-05-04T07:57:04.459Z</time>
      </trkpt>
      <trkpt lat="48.22092" lon="-4.25417">
        <ele>151.79483032227</ele>
        <time>2020-05-04T07:57:08.868Z</time>
      </trkpt>
      <trkpt lat="48.22084" lon="-4.2555">
        <ele>145.45516967773</ele>
        <time>2020-05-04T07:57:13.295Z</time>
      </trkpt>
      <trkpt lat="48.22072" lon="-4.25643">
        <ele>140.78147888184</ele>
        <time>2020-05-04T07:57:17.735Z</time>
      </trkpt>
      <trkpt lat="48.22056" lon="-4.2577">
        <ele>135.91487121582</ele>
        <time>2020-05-04T07:57:22.192Z</time>
      </trkpt>
      <trkpt lat="48.22051" lon="-4.25884">
        <ele>129.63157653809</ele>
        <time>2020-05-04T07:57:26.664Z</time>
      </trkpt>
      <trkpt lat="48.22051" lon="-4.25904">
        <ele>128.9116973877</ele>
        <time>2020-05-04T07:57:31.139Z</time>
      </trkpt>
      <trkpt lat="48.2205" lon="-4.25959">
        <ele>127.80707550049</ele>
        <time>2020-05-04T07:57:35.621Z</time>
      </trkpt>
      <trkpt lat="48.22045" lon="-4.25983">
        <ele>126.64326477051</ele>
        <time>2020-05-04T07:57:40.107Z</time>
      </trkpt>
      <trkpt lat="48.22023" lon="-4.26097">
        <ele>120.53917694092</ele>
        <time>2020-05-04T07:57:44.609Z</time>
      </trkpt>
      <trkpt lat="48.22022" lon="-4.26106">
        <ele>120.11550140381</ele>
        <time>2020-05-04T07:57:49.112Z</time>
      </trkpt>
      <trkpt lat="48.22011" lon="-4.26164">
        <ele>117.11350250244</ele>
        <time>2020-05-04T07:57:53.623Z</time>
      </trkpt>
      <trkpt lat="48.22009" lon="-4.26158">
        <ele>117.25747680664</ele>
        <time>2020-05-04T07:57:58.135Z</time>
      </trkpt>
      <trkpt lat="48.22008" lon="-4.26156">
        <ele>117.29347229004</ele>
        <time>2020-05-04T07:58:02.647Z</time>
      </trkpt>
      <trkpt lat="48.2198" lon="-4.26114">
        <ele>117.79738616943</ele>
        <time>2020-05-04T07:58:07.167Z</time>
      </trkpt>
      <trkpt lat="48.21971" lon="-4.26097">
        <ele>118.27278137207</ele>
        <time>2020-05-04T07:58:11.690Z</time>
      </trkpt>
      <trkpt lat="48.21964" lon="-4.26085">
        <ele>118.59672546387</ele>
        <time>2020-05-04T07:58:16.215Z</time>
      </trkpt>
      <trkpt lat="48.21961" lon="-4.26082">
        <ele>118.63272094727</ele>
        <time>2020-05-04T07:58:20.741Z</time>
      </trkpt>
      <trkpt lat="48.21955" lon="-4.26076">
        <ele>118.58101654053</ele>
        <time>2020-05-04T07:58:25.268Z</time>
      </trkpt>
      <trkpt lat="48.21934" lon="-4.26072">
        <ele>117.71716308594</ele>
        <time>2020-05-04T07:58:29.800Z</time>
      </trkpt>
      <trkpt lat="48.21928" lon="-4.26072">
        <ele>117.44568634033</ele>
        <time>2020-05-04T07:58:34.333Z</time>
      </trkpt>
      <trkpt lat="48.21907" lon="-4.26052">
        <ele>117.66165161133</ele>
        <time>2020-05-04T07:58:38.871Z</time>
      </trkpt>
      <trkpt lat="48.21889" lon="-4.26028">
        <ele>117.63272094727</ele>
        <time>2020-05-04T07:58:43.414Z</time>
      </trkpt>
      <trkpt lat="48.21885" lon="-4.26017">
        <ele>118.01665496826</ele>
        <time>2020-05-04T07:58:47.958Z</time>
      </trkpt>
      <trkpt lat="48.21884" lon="-4.25997">
        <ele>118.94049835205</ele>
        <time>2020-05-04T07:58:52.505Z</time>
      </trkpt>
      <trkpt lat="48.21883" lon="-4.2598">
        <ele>119.44166564941</ele>
        <time>2020-05-04T07:58:57.054Z</time>
      </trkpt>
      <trkpt lat="48.2189" lon="-4.25923">
        <ele>121.22937011719</ele>
        <time>2020-05-04T07:59:01.611Z</time>
      </trkpt>
      <trkpt lat="48.21893" lon="-4.25902">
        <ele>121.91325378418</ele>
        <time>2020-05-04T07:59:06.171Z</time>
      </trkpt>
      <trkpt lat="48.21906" lon="-4.25824">
        <ele>125.76278686523</ele>
        <time>2020-05-04T07:59:10.742Z</time>
      </trkpt>
      <trkpt lat="48.21906" lon="-4.25819">
        <ele>126.00274658203</ele>
        <time>2020-05-04T07:59:15.313Z</time>
      </trkpt>
      <trkpt lat="48.21905" lon="-4.25804">
        <ele>126.67463684082</ele>
        <time>2020-05-04T07:59:19.886Z</time>
      </trkpt>
      <trkpt lat="48.21903" lon="-4.25798">
        <ele>126.86660766602</ele>
        <time>2020-05-04T07:59:24.460Z</time>
      </trkpt>
      <trkpt lat="48.21907" lon="-4.25793">
        <ele>127.29853057861</ele>
        <time>2020-05-04T07:59:29.035Z</time>
      </trkpt>
      <trkpt lat="48.21903" lon="-4.25798">
        <ele>126.86660766602</ele>
        <time>2020-05-04T07:59:33.611Z</time>
      </trkpt>
      <trkpt lat="48.21899" lon="-4.25793">
        <ele>126.91459655762</ele>
        <time>2020-05-04T07:59:38.188Z</time>
      </trkpt>
      <trkpt lat="48.21892" lon="-4.25787">
        <ele>126.86660766602</ele>
        <time>2020-05-04T07:59:42.767Z</time>
      </trkpt>
      <trkpt lat="48.21851" lon="-4.25776">
        <ele>125.42684936523</ele>
        <time>2020-05-04T07:59:47.354Z</time>
      </trkpt>
      <trkpt lat="48.21772" lon="-4.25754">
        <ele>126.21100616455</ele>
        <time>2020-05-04T07:59:51.957Z</time>
      </trkpt>
      <trkpt lat="48.21622" lon="-4.25733">
        <ele>128.24221801758</ele>
        <time>2020-05-04T07:59:56.591Z</time>
      </trkpt>
      <trkpt lat="48.21614" lon="-4.25732">
        <ele>128.51817321777</ele>
        <time>2020-05-04T08:00:01.226Z</time>
      </trkpt>
      <trkpt lat="48.21596" lon="-4.25722">
        <ele>129.78996276855</ele>
        <time>2020-05-04T08:00:05.865Z</time>
      </trkpt>
      <trkpt lat="48.21564" lon="-4.25705">
        <ele>132.51792907715</ele>
        <time>2020-05-04T08:00:10.511Z</time>
      </trkpt>
      <trkpt lat="48.21562" lon="-4.25704">
        <ele>132.72189331055</ele>
        <time>2020-05-04T08:00:15.157Z</time>
      </trkpt>
      <trkpt lat="48.21529" lon="-4.25675">
        <ele>136.98196411133</ele>
        <time>2020-05-04T08:00:19.811Z</time>
      </trkpt>
      <trkpt lat="48.21514" lon="-4.25669">
        <ele>138.45771789551</ele>
        <time>2020-05-04T08:00:24.468Z</time>
      </trkpt>
      <trkpt lat="48.21502" lon="-4.25664">
        <ele>140.25444030762</ele>
        <time>2020-05-04T08:00:29.127Z</time>
      </trkpt>
      <trkpt lat="48.21478" lon="-4.25669">
        <ele>142.65405273438</ele>
        <time>2020-05-04T08:00:33.791Z</time>
      </trkpt>
      <trkpt lat="48.21467" lon="-4.25677">
        <ele>143.20594787598</ele>
        <time>2020-05-04T08:00:38.458Z</time>
      </trkpt>
      <trkpt lat="48.21463" lon="-4.25682">
        <ele>143.20594787598</ele>
        <time>2020-05-04T08:00:43.126Z</time>
      </trkpt>
      <trkpt lat="48.2146" lon="-4.25687">
        <ele>143.08596801758</ele>
        <time>2020-05-04T08:00:47.795Z</time>
      </trkpt>
      <trkpt lat="48.21423" lon="-4.25738">
        <ele>144.01142883301</ele>
        <time>2020-05-04T08:00:52.474Z</time>
      </trkpt>
      <trkpt lat="48.21419" lon="-4.25745">
        <ele>143.97543334961</ele>
        <time>2020-05-04T08:00:57.154Z</time>
      </trkpt>
      <trkpt lat="48.21394" lon="-4.25761">
        <ele>145.41519165039</ele>
        <time>2020-05-04T08:01:01.839Z</time>
      </trkpt>
      <trkpt lat="48.21373" lon="-4.25766">
        <ele>147.13090515137</ele>
        <time>2020-05-04T08:01:06.529Z</time>
      </trkpt>
      <trkpt lat="48.21349" lon="-4.25766">
        <ele>149.7760925293</ele>
        <time>2020-05-04T08:01:11.224Z</time>
      </trkpt>
      <trkpt lat="48.21343" lon="-4.25765">
        <ele>150.52861022949</ele>
        <time>2020-05-04T08:01:15.920Z</time>
      </trkpt>
      <trkpt lat="48.21308" lon="-4.25759">
        <ele>153.62408447266</ele>
        <time>2020-05-04T08:01:20.623Z</time>
      </trkpt>
      <trkpt lat="48.21297" lon="-4.25751">
        <ele>155.18383789062</ele>
        <time>2020-05-04T08:01:25.328Z</time>
      </trkpt>
      <trkpt lat="48.21285" lon="-4.25732">
        <ele>158.16104125977</ele>
        <time>2020-05-04T08:01:30.037Z</time>
      </trkpt>
      <trkpt lat="48.21281" lon="-4.25724">
        <ele>159.36083984375</ele>
        <time>2020-05-04T08:01:34.747Z</time>
      </trkpt>
      <trkpt lat="48.21277" lon="-4.25721">
        <ele>160.02073669434</ele>
        <time>2020-05-04T08:01:39.458Z</time>
      </trkpt>
      <trkpt lat="48.21271" lon="-4.2572">
        <ele>160.63262939453</ele>
        <time>2020-05-04T08:01:44.170Z</time>
      </trkpt>
      <trkpt lat="48.21296" lon="-4.25704">
        <ele>160.26069641113</ele>
        <time>2020-05-04T08:01:48.888Z</time>
      </trkpt>
      <trkpt lat="48.21271" lon="-4.2572">
        <ele>160.63262939453</ele>
        <time>2020-05-04T08:01:53.611Z</time>
      </trkpt>
      <trkpt lat="48.21261" lon="-4.25724">
        <ele>161.06237792969</ele>
        <time>2020-05-04T08:01:58.336Z</time>
      </trkpt>
      <trkpt lat="48.21257" lon="-4.25726">
        <ele>161.27833557129</ele>
        <time>2020-05-04T08:02:03.062Z</time>
      </trkpt>
      <trkpt lat="48.21239" lon="-4.25742">
        <ele>161.49430847168</ele>
        <time>2020-05-04T08:02:07.792Z</time>
      </trkpt>
      <trkpt lat="48.21222" lon="-4.25765">
        <ele>160.8464050293</ele>
        <time>2020-05-04T08:02:12.527Z</time>
      </trkpt>
      <trkpt lat="48.21206" lon="-4.25797">
        <ele>160.39767456055</ele>
        <time>2020-05-04T08:02:17.267Z</time>
      </trkpt>
      <trkpt lat="48.21203" lon="-4.25808">
        <ele>160.32568359375</ele>
        <time>2020-05-04T08:02:22.009Z</time>
      </trkpt>
      <trkpt lat="48.21193" lon="-4.25843">
        <ele>160.14570617676</ele>
        <time>2020-05-04T08:02:26.756Z</time>
      </trkpt>
      <trkpt lat="48.21189" lon="-4.25894">
        <ele>160.00059509277</ele>
        <time>2020-05-04T08:02:31.510Z</time>
      </trkpt>
      <trkpt lat="48.21194" lon="-4.2603">
        <ele>163.7946472168</ele>
        <time>2020-05-04T08:02:36.282Z</time>
      </trkpt>
      <trkpt lat="48.21195" lon="-4.26039">
        <ele>163.86663818359</ele>
        <time>2020-05-04T08:02:41.055Z</time>
      </trkpt>
      <trkpt lat="48.21194" lon="-4.26076">
        <ele>164.89845275879</ele>
        <time>2020-05-04T08:02:45.833Z</time>
      </trkpt>
      <trkpt lat="48.2119" lon="-4.26091">
        <ele>165.83430480957</ele>
        <time>2020-05-04T08:02:50.613Z</time>
      </trkpt>
      <trkpt lat="48.21181" lon="-4.2609">
        <ele>167.10609436035</ele>
        <time>2020-05-04T08:02:55.395Z</time>
      </trkpt>
      <trkpt lat="48.21155" lon="-4.2609">
        <ele>168.58792114258</ele>
        <time>2020-05-04T08:03:00.182Z</time>
      </trkpt>
      <trkpt lat="48.21076" lon="-4.26119">
        <ele>172.0009765625</ele>
        <time>2020-05-04T08:03:04.985Z</time>
      </trkpt>
      <trkpt lat="48.21011" lon="-4.26144">
        <ele>171.90180969238</ele>
        <time>2020-05-04T08:03:09.802Z</time>
      </trkpt>
      <trkpt lat="48.20956" lon="-4.26165">
        <ele>173.08374023438</ele>
        <time>2020-05-04T08:03:14.630Z</time>
      </trkpt>
      <trkpt lat="48.20909" lon="-4.26174">
        <ele>173.76138305664</ele>
        <time>2020-05-04T08:03:19.468Z</time>
      </trkpt>
      <trkpt lat="48.20835" lon="-4.26191">
        <ele>174.23851013184</ele>
        <time>2020-05-04T08:03:24.321Z</time>
      </trkpt>
      <trkpt lat="48.2082" lon="-4.26195">
        <ele>174.04653930664</ele>
        <time>2020-05-04T08:03:29.177Z</time>
      </trkpt>
      <trkpt lat="48.20808" lon="-4.26202">
        <ele>173.71058654785</ele>
        <time>2020-05-04T08:03:34.035Z</time>
      </trkpt>
      <trkpt lat="48.20776" lon="-4.26229">
        <ele>172.41481018066</ele>
        <time>2020-05-04T08:03:38.901Z</time>
      </trkpt>
      <trkpt lat="48.2073" lon="-4.26266">
        <ele>170.63909912109</ele>
        <time>2020-05-04T08:03:43.777Z</time>
      </trkpt>
      <trkpt lat="48.20708" lon="-4.26288">
        <ele>169.5832824707</ele>
        <time>2020-05-04T08:03:48.658Z</time>
      </trkpt>
      <trkpt lat="48.20689" lon="-4.26305">
        <ele>168.76741027832</ele>
        <time>2020-05-04T08:03:53.544Z</time>
      </trkpt>
      <trkpt lat="48.20675" lon="-4.26318">
        <ele>168.10179138184</ele>
        <time>2020-05-04T08:03:58.433Z</time>
      </trkpt>
      <trkpt lat="48.20651" lon="-4.26338">
        <ele>166.85398864746</ele>
        <time>2020-05-04T08:04:03.328Z</time>
      </trkpt>
      <trkpt lat="48.20458" lon="-4.2649">
        <ele>159.94444274902</ele>
        <time>2020-05-04T08:04:08.266Z</time>
      </trkpt>
      <trkpt lat="48.20406" lon="-4.26538">
        <ele>159.06182861328</ele>
        <time>2020-05-04T08:04:13.217Z</time>
      </trkpt>
      <trkpt lat="48.20358" lon="-4.26586">
        <ele>158.48593139648</ele>
        <time>2020-05-04T08:04:18.179Z</time>
      </trkpt>
      <trkpt lat="48.20347" lon="-4.26602">
        <ele>158.23397827148</ele>
        <time>2020-05-04T08:04:23.144Z</time>
      </trkpt>
      <trkpt lat="48.20346" lon="-4.26607">
        <ele>158.12599182129</ele>
        <time>2020-05-04T08:04:28.110Z</time>
      </trkpt>
      <trkpt lat="48.20345" lon="-4.26634">
        <ele>156.72685241699</ele>
        <time>2020-05-04T08:04:33.080Z</time>
      </trkpt>
      <trkpt lat="48.20341" lon="-4.26731">
        <ele>151.51908874512</ele>
        <time>2020-05-04T08:04:38.063Z</time>
      </trkpt>
      <trkpt lat="48.20337" lon="-4.26763">
        <ele>150.17530822754</ele>
        <time>2020-05-04T08:04:43.050Z</time>
      </trkpt>
      <trkpt lat="48.20326" lon="-4.26816">
        <ele>147.30033874512</ele>
        <time>2020-05-04T08:04:48.044Z</time>
      </trkpt>
      <trkpt lat="48.20325" lon="-4.26823">
        <ele>146.78442382812</ele>
        <time>2020-05-04T08:04:53.039Z</time>
      </trkpt>
      <trkpt lat="48.2033" lon="-4.26828">
        <ele>146.00456237793</ele>
        <time>2020-05-04T08:04:58.035Z</time>
      </trkpt>
      <trkpt lat="48.2038" lon="-4.26913">
        <ele>136.8546295166</ele>
        <time>2020-05-04T08:05:03.047Z</time>
      </trkpt>
      <trkpt lat="48.20398" lon="-4.26939">
        <ele>132.12741088867</ele>
        <time>2020-05-04T08:05:08.064Z</time>
      </trkpt>
      <trkpt lat="48.20408" lon="-4.2695">
        <ele>130.04948425293</ele>
        <time>2020-05-04T08:05:13.083Z</time>
      </trkpt>
      <trkpt lat="48.20413" lon="-4.26955">
        <ele>129.14964294434</ele>
        <time>2020-05-04T08:05:18.103Z</time>
      </trkpt>
      <trkpt lat="48.20426" lon="-4.26959">
        <ele>127.65626525879</ele>
        <time>2020-05-04T08:05:23.126Z</time>
      </trkpt>
      <trkpt lat="48.20485" lon="-4.27017">
        <ele>119.13548278809</ele>
        <time>2020-05-04T08:05:28.163Z</time>
      </trkpt>
      <trkpt lat="48.20487" lon="-4.27017">
        <ele>119.08749389648</ele>
        <time>2020-05-04T08:05:33.201Z</time>
      </trkpt>
      <trkpt lat="48.20487" lon="-4.27013">
        <ele>119.56741333008</ele>
        <time>2020-05-04T08:05:38.239Z</time>
      </trkpt>
      <trkpt lat="48.20487" lon="-4.27017">
        <ele>119.08749389648</ele>
        <time>2020-05-04T08:05:43.278Z</time>
      </trkpt>
      <trkpt lat="48.20495" lon="-4.27016">
        <ele>119.01550292969</ele>
        <time>2020-05-04T08:05:48.318Z</time>
      </trkpt>
      <trkpt lat="48.20518" lon="-4.27026">
        <ele>117.60341644287</ele>
        <time>2020-05-04T08:05:53.363Z</time>
      </trkpt>
      <trkpt lat="48.2052" lon="-4.27031">
        <ele>117.04759979248</ele>
        <time>2020-05-04T08:05:58.409Z</time>
      </trkpt>
      <trkpt lat="48.20523" lon="-4.27045">
        <ele>115.7758102417</ele>
        <time>2020-05-04T08:06:03.457Z</time>
      </trkpt>
      <trkpt lat="48.20537" lon="-4.27158">
        <ele>106.28779602051</ele>
        <time>2020-05-04T08:06:08.520Z</time>
      </trkpt>
      <trkpt lat="48.20539" lon="-4.27168">
        <ele>105.68789672852</ele>
        <time>2020-05-04T08:06:13.584Z</time>
      </trkpt>
      <trkpt lat="48.20542" lon="-4.27178">
        <ele>105.08799743652</ele>
        <time>2020-05-04T08:06:18.650Z</time>
      </trkpt>
      <trkpt lat="48.2058" lon="-4.27227">
        <ele>102.14849090576</ele>
        <time>2020-05-04T08:06:23.726Z</time>
      </trkpt>
      <trkpt lat="48.20582" lon="-4.27239">
        <ele>101.42861175537</ele>
        <time>2020-05-04T08:06:28.804Z</time>
      </trkpt>
      <trkpt lat="48.20583" lon="-4.27244">
        <ele>101.12866210938</ele>
        <time>2020-05-04T08:06:33.882Z</time>
      </trkpt>
      <trkpt lat="48.20587" lon="-4.27346">
        <ele>95.107238769531</ele>
        <time>2020-05-04T08:06:38.974Z</time>
      </trkpt>
      <trkpt lat="48.2058" lon="-4.27342">
        <ele>95.431182861328</ele>
        <time>2020-05-04T08:06:44.068Z</time>
      </trkpt>
      <trkpt lat="48.20572" lon="-4.27339">
        <ele>95.707138061523</ele>
        <time>2020-05-04T08:06:49.163Z</time>
      </trkpt>
      <trkpt lat="48.20549" lon="-4.27333">
        <ele>96.343032836914</ele>
        <time>2020-05-04T08:06:54.263Z</time>
      </trkpt>
      <trkpt lat="48.2052" lon="-4.27342">
        <ele>95.999710083008</ele>
        <time>2020-05-04T08:06:59.369Z</time>
      </trkpt>
      <trkpt lat="48.20494" lon="-4.27347">
        <ele>95.546379089355</ele>
        <time>2020-05-04T08:07:04.480Z</time>
      </trkpt>
      <trkpt lat="48.20473" lon="-4.2735">
        <ele>95.150444030762</ele>
        <time>2020-05-04T08:07:09.595Z</time>
      </trkpt>
      <trkpt lat="48.20463" lon="-4.27342">
        <ele>95.414398193359</ele>
        <time>2020-05-04T08:07:14.713Z</time>
      </trkpt>
      <trkpt lat="48.20462" lon="-4.27338">
        <ele>95.594367980957</ele>
        <time>2020-05-04T08:07:19.831Z</time>
      </trkpt>
      <trkpt lat="48.20459" lon="-4.27325">
        <ele>96.356666564941</ele>
        <time>2020-05-04T08:07:24.951Z</time>
      </trkpt>
      <trkpt lat="48.20448" lon="-4.27337">
        <ele>95.624786376953</ele>
        <time>2020-05-04T08:07:30.074Z</time>
      </trkpt>
      <trkpt lat="48.20438" lon="-4.2735">
        <ele>94.808921813965</ele>
        <time>2020-05-04T08:07:35.199Z</time>
      </trkpt>
      <trkpt lat="48.20419" lon="-4.27374">
        <ele>93.463966369629</ele>
        <time>2020-05-04T08:07:40.329Z</time>
      </trkpt>
      <trkpt lat="48.20367" lon="-4.27437">
        <ele>90.440467834473</ele>
        <time>2020-05-04T08:07:45.473Z</time>
      </trkpt>
      <trkpt lat="48.20361" lon="-4.27443">
        <ele>90.152519226074</ele>
        <time>2020-05-04T08:07:50.618Z</time>
      </trkpt>
      <trkpt lat="48.20303" lon="-4.27516">
        <ele>87.154090881348</ele>
        <time>2020-05-04T08:07:55.778Z</time>
      </trkpt>
      <trkpt lat="48.20289" lon="-4.27532">
        <ele>86.554191589355</ele>
        <time>2020-05-04T08:08:00.942Z</time>
      </trkpt>
      <trkpt lat="48.2027" lon="-4.27555">
        <ele>85.678337097168</ele>
        <time>2020-05-04T08:08:06.111Z</time>
      </trkpt>
      <trkpt lat="48.20254" lon="-4.27574">
        <ele>85.144241333008</ele>
        <time>2020-05-04T08:08:11.284Z</time>
      </trkpt>
      <trkpt lat="48.20219" lon="-4.27617">
        <ele>84.340377807617</ele>
        <time>2020-05-04T08:08:16.466Z</time>
      </trkpt>
      <trkpt lat="48.20214" lon="-4.27623">
        <ele>84.232391357422</ele>
        <time>2020-05-04T08:08:21.649Z</time>
      </trkpt>
      <trkpt lat="48.20205" lon="-4.27635">
        <ele>83.980430603027</ele>
        <time>2020-05-04T08:08:26.835Z</time>
      </trkpt>
      <trkpt lat="48.20205" lon="-4.27666">
        <ele>82.492683410645</ele>
        <time>2020-05-04T08:08:32.025Z</time>
      </trkpt>
      <trkpt lat="48.20213" lon="-4.27884">
        <ele>74.580268859863</ele>
        <time>2020-05-04T08:08:37.244Z</time>
      </trkpt>
      <trkpt lat="48.20212" lon="-4.2791">
        <ele>73.692420959473</ele>
        <time>2020-05-04T08:08:42.466Z</time>
      </trkpt>
      <trkpt lat="48.20215" lon="-4.27931">
        <ele>73.048652648926</ele>
        <time>2020-05-04T08:08:47.691Z</time>
      </trkpt>
      <trkpt lat="48.20218" lon="-4.27976">
        <ele>71.504043579102</ele>
        <time>2020-05-04T08:08:52.922Z</time>
      </trkpt>
      <trkpt lat="48.20226" lon="-4.28073">
        <ele>68.724670410156</ele>
        <time>2020-05-04T08:08:58.166Z</time>
      </trkpt>
      <trkpt lat="48.20226" lon="-4.28079">
        <ele>68.508712768555</ele>
        <time>2020-05-04T08:09:03.411Z</time>
      </trkpt>
      <trkpt lat="48.20227" lon="-4.28098">
        <ele>67.788833618164</ele>
        <time>2020-05-04T08:09:08.659Z</time>
      </trkpt>
      <trkpt lat="48.20228" lon="-4.2814">
        <ele>66.565567016602</ele>
        <time>2020-05-04T08:09:13.912Z</time>
      </trkpt>
      <trkpt lat="48.20226" lon="-4.28169">
        <ele>66.185249328613</ele>
        <time>2020-05-04T08:09:19.169Z</time>
      </trkpt>
      <trkpt lat="48.20223" lon="-4.28236">
        <ele>64.977088928223</ele>
        <time>2020-05-04T08:09:24.435Z</time>
      </trkpt>
      <trkpt lat="48.20221" lon="-4.28255">
        <ele>64.569160461426</ele>
        <time>2020-05-04T08:09:29.704Z</time>
      </trkpt>
      <trkpt lat="48.20219" lon="-4.2827">
        <ele>64.257209777832</ele>
        <time>2020-05-04T08:09:34.975Z</time>
      </trkpt>
      <trkpt lat="48.20216" lon="-4.28291">
        <ele>63.41675567627</ele>
        <time>2020-05-04T08:09:40.249Z</time>
      </trkpt>
      <trkpt lat="48.20213" lon="-4.283">
        <ele>62.948833465576</ele>
        <time>2020-05-04T08:09:45.524Z</time>
      </trkpt>
      <trkpt lat="48.20208" lon="-4.28305">
        <ele>62.768863677979</ele>
        <time>2020-05-04T08:09:50.800Z</time>
      </trkpt>
      <trkpt lat="48.20212" lon="-4.28317">
        <ele>61.953002929688</ele>
        <time>2020-05-04T08:09:56.078Z</time>
      </trkpt>
      <trkpt lat="48.20208" lon="-4.28305">
        <ele>62.768863677979</ele>
        <time>2020-05-04T08:10:01.358Z</time>
      </trkpt>
      <trkpt lat="48.20163" lon="-4.28354">
        <ele>60.539756774902</ele>
        <time>2020-05-04T08:10:06.649Z</time>
      </trkpt>
      <trkpt lat="48.20146" lon="-4.28365">
        <ele>59.927921295166</ele>
        <time>2020-05-04T08:10:11.944Z</time>
        <extensions>
          <visugpx:TrkExtension xmlns:visugpx="https://www.visugpx.com/editgpx/">
            <visugpx:node>13</visugpx:node>
            </visugpx:TrkExtension>
        </extensions>
      </trkpt>
    </trkseg>
  </trk>
</gpx>